<?xml version="1.0" encoding="UTF-8" standalone="no" ?>
<gpx xmlns="http://www.topografix.com/GPX/1/1" xmlns:xsi="http://www.w3.org/2001/XMLSchema-instance" xsi:schemaLocation="http://www.topografix.com/GPX/1/1 http://www.topografix.com/GPX/1/1/gpx.xsd" version="1.1" creator="VisuGPX - https://www.visugpx.com">
  <metadata>
    <name>gr70 E6: 23 JUIL 2021 09:28</name>
    <desc><![CDATA[
]]></desc>
  </metadata>
  <trk>
    <name><![CDATA[Tracé actuel: 23 JUIL 2021 09:28]]></name>
    <trkseg>
      <trkpt lat="44.27166" lon="3.73103">
        <ele>701.42</ele>
        <time>2021-07-23T07:28:57Z</time>
      </trkpt>
      <trkpt lat="44.27167" lon="3.73096">
        <ele>702.38</ele>
        <time>2021-07-23T07:29:07Z</time>
      </trkpt>
      <trkpt lat="44.27165" lon="3.73091">
        <ele>702.86</ele>
        <time>2021-07-23T07:29:11Z</time>
      </trkpt>
      <trkpt lat="44.27164" lon="3.73087">
        <ele>702.86</ele>
        <time>2021-07-23T07:29:13Z</time>
      </trkpt>
      <trkpt lat="44.27162" lon="3.7307">
        <ele>701.42</ele>
        <time>2021-07-23T07:29:26Z</time>
      </trkpt>
      <trkpt lat="44.27157" lon="3.73071">
        <ele>699.5</ele>
        <time>2021-07-23T07:29:41Z</time>
      </trkpt>
      <trkpt lat="44.27154" lon="3.73067">
        <ele>694.21</ele>
        <time>2021-07-23T07:30:09Z</time>
      </trkpt>
      <trkpt lat="44.27153" lon="3.73068">
        <ele>694.69</ele>
        <time>2021-07-23T07:30:11Z</time>
      </trkpt>
      <trkpt lat="44.27134" lon="3.73069">
        <ele>693.73</ele>
        <time>2021-07-23T07:30:18Z</time>
      </trkpt>
      <trkpt lat="44.27099" lon="3.73031">
        <ele>691.33</ele>
        <time>2021-07-23T07:30:32Z</time>
      </trkpt>
      <trkpt lat="44.27093" lon="3.73026">
        <ele>694.69</ele>
        <time>2021-07-23T07:30:44Z</time>
      </trkpt>
      <trkpt lat="44.27093" lon="3.73023">
        <ele>699.5</ele>
        <time>2021-07-23T07:31:17Z</time>
      </trkpt>
      <trkpt lat="44.27092" lon="3.73025">
        <ele>697.09</ele>
        <time>2021-07-23T07:31:37Z</time>
      </trkpt>
      <trkpt lat="44.27092" lon="3.73023">
        <ele>697.09</ele>
        <time>2021-07-23T07:31:55Z</time>
      </trkpt>
      <trkpt lat="44.27092" lon="3.73024">
        <ele>697.57</ele>
        <time>2021-07-23T07:31:59Z</time>
      </trkpt>
      <trkpt lat="44.27091" lon="3.73024">
        <ele>697.09</ele>
        <time>2021-07-23T07:32:02Z</time>
      </trkpt>
      <trkpt lat="44.27076" lon="3.73009">
        <ele>699.98</ele>
        <time>2021-07-23T07:32:13Z</time>
      </trkpt>
      <trkpt lat="44.27068" lon="3.73005">
        <ele>701.42</ele>
        <time>2021-07-23T07:32:29Z</time>
      </trkpt>
      <trkpt lat="44.27051" lon="3.73019">
        <ele>701.42</ele>
        <time>2021-07-23T07:32:40Z</time>
      </trkpt>
      <trkpt lat="44.27043" lon="3.7303">
        <ele>701.42</ele>
        <time>2021-07-23T07:32:45Z</time>
      </trkpt>
      <trkpt lat="44.27043" lon="3.7304">
        <ele>701.42</ele>
        <time>2021-07-23T07:32:49Z</time>
      </trkpt>
      <trkpt lat="44.27022" lon="3.73064">
        <ele>701.42</ele>
        <time>2021-07-23T07:33:02Z</time>
      </trkpt>
      <trkpt lat="44.26998" lon="3.73079">
        <ele>701.9</ele>
        <time>2021-07-23T07:33:14Z</time>
      </trkpt>
      <trkpt lat="44.26981" lon="3.73088">
        <ele>702.38</ele>
        <time>2021-07-23T07:33:25Z</time>
      </trkpt>
      <trkpt lat="44.26957" lon="3.7308">
        <ele>703.82</ele>
        <time>2021-07-23T07:33:37Z</time>
      </trkpt>
      <trkpt lat="44.26954" lon="3.73078">
        <ele>703.82</ele>
        <time>2021-07-23T07:33:40Z</time>
      </trkpt>
      <trkpt lat="44.26939" lon="3.73067">
        <ele>703.82</ele>
        <time>2021-07-23T07:33:50Z</time>
      </trkpt>
      <trkpt lat="44.26919" lon="3.73058">
        <ele>704.78</ele>
        <time>2021-07-23T07:33:59Z</time>
      </trkpt>
      <trkpt lat="44.26899" lon="3.73047">
        <ele>704.3</ele>
        <time>2021-07-23T07:34:13Z</time>
      </trkpt>
      <trkpt lat="44.26898" lon="3.73048">
        <ele>704.3</ele>
        <time>2021-07-23T07:34:16Z</time>
      </trkpt>
      <trkpt lat="44.26899" lon="3.73051">
        <ele>703.34</ele>
        <time>2021-07-23T07:34:19Z</time>
      </trkpt>
      <trkpt lat="44.26921" lon="3.73063">
        <ele>700.94</ele>
        <time>2021-07-23T07:34:30Z</time>
      </trkpt>
      <trkpt lat="44.26925" lon="3.73065">
        <ele>700.94</ele>
        <time>2021-07-23T07:34:41Z</time>
      </trkpt>
      <trkpt lat="44.26925" lon="3.7307">
        <ele>701.42</ele>
        <time>2021-07-23T07:34:55Z</time>
      </trkpt>
      <trkpt lat="44.26926" lon="3.73069">
        <ele>702.38</ele>
        <time>2021-07-23T07:35:25Z</time>
      </trkpt>
      <trkpt lat="44.26926" lon="3.73067">
        <ele>703.34</ele>
        <time>2021-07-23T07:35:57Z</time>
      </trkpt>
      <trkpt lat="44.26923" lon="3.7307">
        <ele>703.82</ele>
        <time>2021-07-23T07:36:24Z</time>
      </trkpt>
      <trkpt lat="44.26922" lon="3.7307">
        <ele>704.3</ele>
        <time>2021-07-23T07:36:34Z</time>
      </trkpt>
      <trkpt lat="44.26912" lon="3.7307">
        <ele>703.82</ele>
        <time>2021-07-23T07:36:39Z</time>
      </trkpt>
      <trkpt lat="44.26907" lon="3.73068">
        <ele>703.34</ele>
        <time>2021-07-23T07:36:41Z</time>
      </trkpt>
      <trkpt lat="44.26899" lon="3.73072">
        <ele>702.38</ele>
        <time>2021-07-23T07:36:44Z</time>
      </trkpt>
      <trkpt lat="44.26882" lon="3.73103">
        <ele>702.86</ele>
        <time>2021-07-23T07:36:54Z</time>
      </trkpt>
      <trkpt lat="44.26881" lon="3.73106">
        <ele>702.86</ele>
        <time>2021-07-23T07:36:57Z</time>
      </trkpt>
      <trkpt lat="44.26892" lon="3.73116">
        <ele>702.86</ele>
        <time>2021-07-23T07:37:06Z</time>
      </trkpt>
      <trkpt lat="44.26893" lon="3.73118">
        <ele>703.34</ele>
        <time>2021-07-23T07:37:10Z</time>
      </trkpt>
      <trkpt lat="44.26898" lon="3.73121">
        <ele>702.86</ele>
        <time>2021-07-23T07:37:14Z</time>
      </trkpt>
      <trkpt lat="44.26921" lon="3.73136">
        <ele>702.86</ele>
        <time>2021-07-23T07:37:27Z</time>
      </trkpt>
      <trkpt lat="44.26951" lon="3.73161">
        <ele>702.86</ele>
        <time>2021-07-23T07:37:38Z</time>
      </trkpt>
      <trkpt lat="44.26975" lon="3.73186">
        <ele>703.34</ele>
        <time>2021-07-23T07:37:45Z</time>
      </trkpt>
      <trkpt lat="44.26994" lon="3.73225">
        <ele>704.3</ele>
        <time>2021-07-23T07:37:58Z</time>
      </trkpt>
      <trkpt lat="44.26995" lon="3.73266">
        <ele>704.78</ele>
        <time>2021-07-23T07:38:11Z</time>
      </trkpt>
      <trkpt lat="44.26996" lon="3.73295">
        <ele>705.26</ele>
        <time>2021-07-23T07:38:20Z</time>
      </trkpt>
      <trkpt lat="44.26991" lon="3.73323">
        <ele>705.26</ele>
        <time>2021-07-23T07:38:29Z</time>
      </trkpt>
      <trkpt lat="44.26977" lon="3.73345">
        <ele>705.26</ele>
        <time>2021-07-23T07:38:39Z</time>
      </trkpt>
      <trkpt lat="44.2696" lon="3.7337">
        <ele>706.23</ele>
        <time>2021-07-23T07:38:52Z</time>
      </trkpt>
      <trkpt lat="44.26947" lon="3.73391">
        <ele>706.71</ele>
        <time>2021-07-23T07:39:02Z</time>
      </trkpt>
      <trkpt lat="44.26936" lon="3.73404">
        <ele>707.67</ele>
        <time>2021-07-23T07:39:09Z</time>
      </trkpt>
      <trkpt lat="44.26934" lon="3.73408">
        <ele>707.67</ele>
        <time>2021-07-23T07:39:11Z</time>
      </trkpt>
      <trkpt lat="44.2692" lon="3.7343">
        <ele>710.55</ele>
        <time>2021-07-23T07:39:25Z</time>
      </trkpt>
      <trkpt lat="44.26905" lon="3.73442">
        <ele>711.51</ele>
        <time>2021-07-23T07:39:36Z</time>
      </trkpt>
      <trkpt lat="44.26888" lon="3.73458">
        <ele>712.95</ele>
        <time>2021-07-23T07:39:49Z</time>
      </trkpt>
      <trkpt lat="44.26871" lon="3.73469">
        <ele>713.92</ele>
        <time>2021-07-23T07:40:01Z</time>
      </trkpt>
      <trkpt lat="44.26856" lon="3.73481">
        <ele>714.4</ele>
        <time>2021-07-23T07:40:12Z</time>
      </trkpt>
      <trkpt lat="44.26852" lon="3.73492">
        <ele>714.4</ele>
        <time>2021-07-23T07:40:20Z</time>
      </trkpt>
      <trkpt lat="44.26851" lon="3.73497">
        <ele>714.4</ele>
        <time>2021-07-23T07:40:23Z</time>
      </trkpt>
      <trkpt lat="44.26844" lon="3.73503">
        <ele>714.4</ele>
        <time>2021-07-23T07:40:29Z</time>
      </trkpt>
      <trkpt lat="44.26843" lon="3.73507">
        <ele>714.4</ele>
        <time>2021-07-23T07:40:31Z</time>
      </trkpt>
      <trkpt lat="44.26834" lon="3.7352">
        <ele>714.88</ele>
        <time>2021-07-23T07:40:39Z</time>
      </trkpt>
      <trkpt lat="44.26824" lon="3.7354">
        <ele>718.72</ele>
        <time>2021-07-23T07:40:53Z</time>
      </trkpt>
      <trkpt lat="44.2682" lon="3.73547">
        <ele>720.65</ele>
        <time>2021-07-23T07:40:58Z</time>
      </trkpt>
      <trkpt lat="44.26817" lon="3.7356">
        <ele>720.65</ele>
        <time>2021-07-23T07:41:06Z</time>
      </trkpt>
      <trkpt lat="44.26815" lon="3.73571">
        <ele>720.65</ele>
        <time>2021-07-23T07:41:14Z</time>
      </trkpt>
      <trkpt lat="44.26812" lon="3.73579">
        <ele>721.61</ele>
        <time>2021-07-23T07:41:19Z</time>
      </trkpt>
      <trkpt lat="44.26806" lon="3.73593">
        <ele>722.09</ele>
        <time>2021-07-23T07:41:28Z</time>
      </trkpt>
      <trkpt lat="44.26807" lon="3.73597">
        <ele>722.09</ele>
        <time>2021-07-23T07:41:30Z</time>
      </trkpt>
      <trkpt lat="44.26802" lon="3.73607">
        <ele>723.05</ele>
        <time>2021-07-23T07:41:37Z</time>
      </trkpt>
      <trkpt lat="44.268" lon="3.73606">
        <ele>733.14</ele>
        <time>2021-07-23T07:41:51Z</time>
      </trkpt>
      <trkpt lat="44.26798" lon="3.73605">
        <ele>734.1</ele>
        <time>2021-07-23T07:41:53Z</time>
      </trkpt>
      <trkpt lat="44.26783" lon="3.73597">
        <ele>736.99</ele>
        <time>2021-07-23T07:42:08Z</time>
      </trkpt>
      <trkpt lat="44.26782" lon="3.73596">
        <ele>736.99</ele>
        <time>2021-07-23T07:42:09Z</time>
      </trkpt>
      <trkpt lat="44.2677" lon="3.73587">
        <ele>740.35</ele>
        <time>2021-07-23T07:42:24Z</time>
      </trkpt>
      <trkpt lat="44.26758" lon="3.73578">
        <ele>741.79</ele>
        <time>2021-07-23T07:42:36Z</time>
      </trkpt>
      <trkpt lat="44.26744" lon="3.7357">
        <ele>746.12</ele>
        <time>2021-07-23T07:42:49Z</time>
      </trkpt>
      <trkpt lat="44.26734" lon="3.73565">
        <ele>747.08</ele>
        <time>2021-07-23T07:43:00Z</time>
      </trkpt>
      <trkpt lat="44.26718" lon="3.73559">
        <ele>750.45</ele>
        <time>2021-07-23T07:43:16Z</time>
      </trkpt>
      <trkpt lat="44.26697" lon="3.73561">
        <ele>751.41</ele>
        <time>2021-07-23T07:43:30Z</time>
      </trkpt>
      <trkpt lat="44.26685" lon="3.73556">
        <ele>751.41</ele>
        <time>2021-07-23T07:43:43Z</time>
      </trkpt>
      <trkpt lat="44.26672" lon="3.73549">
        <ele>754.29</ele>
        <time>2021-07-23T07:43:56Z</time>
      </trkpt>
      <trkpt lat="44.26664" lon="3.73546">
        <ele>753.81</ele>
        <time>2021-07-23T07:44:05Z</time>
      </trkpt>
      <trkpt lat="44.26652" lon="3.73543">
        <ele>754.29</ele>
        <time>2021-07-23T07:44:16Z</time>
      </trkpt>
      <trkpt lat="44.26642" lon="3.73542">
        <ele>753.81</ele>
        <time>2021-07-23T07:44:29Z</time>
      </trkpt>
      <trkpt lat="44.26633" lon="3.73543">
        <ele>755.73</ele>
        <time>2021-07-23T07:44:40Z</time>
      </trkpt>
      <trkpt lat="44.2663" lon="3.73545">
        <ele>756.69</ele>
        <time>2021-07-23T07:44:43Z</time>
      </trkpt>
      <trkpt lat="44.26629" lon="3.73554">
        <ele>758.62</ele>
        <time>2021-07-23T07:44:49Z</time>
      </trkpt>
      <trkpt lat="44.26618" lon="3.73561">
        <ele>761.5</ele>
        <time>2021-07-23T07:45:01Z</time>
      </trkpt>
      <trkpt lat="44.2661" lon="3.73562">
        <ele>762.94</ele>
        <time>2021-07-23T07:45:04Z</time>
      </trkpt>
      <trkpt lat="44.26586" lon="3.73557">
        <ele>765.35</ele>
        <time>2021-07-23T07:45:12Z</time>
      </trkpt>
      <trkpt lat="44.2658" lon="3.73556">
        <ele>765.83</ele>
        <time>2021-07-23T07:45:15Z</time>
      </trkpt>
      <trkpt lat="44.26566" lon="3.7357">
        <ele>767.27</ele>
        <time>2021-07-23T07:45:26Z</time>
      </trkpt>
      <trkpt lat="44.26561" lon="3.73572">
        <ele>765.83</ele>
        <time>2021-07-23T07:45:30Z</time>
      </trkpt>
      <trkpt lat="44.26541" lon="3.73577">
        <ele>765.35</ele>
        <time>2021-07-23T07:45:43Z</time>
      </trkpt>
      <trkpt lat="44.26528" lon="3.73576">
        <ele>765.35</ele>
        <time>2021-07-23T07:45:51Z</time>
      </trkpt>
      <trkpt lat="44.26521" lon="3.73576">
        <ele>767.27</ele>
        <time>2021-07-23T07:45:56Z</time>
      </trkpt>
      <trkpt lat="44.26519" lon="3.73573">
        <ele>768.23</ele>
        <time>2021-07-23T07:45:58Z</time>
      </trkpt>
      <trkpt lat="44.26519" lon="3.73558">
        <ele>772.08</ele>
        <time>2021-07-23T07:46:07Z</time>
      </trkpt>
      <trkpt lat="44.26525" lon="3.73555">
        <ele>775.44</ele>
        <time>2021-07-23T07:46:16Z</time>
      </trkpt>
      <trkpt lat="44.26536" lon="3.73555">
        <ele>776.4</ele>
        <time>2021-07-23T07:46:29Z</time>
      </trkpt>
      <trkpt lat="44.26541" lon="3.73555">
        <ele>775.92</ele>
        <time>2021-07-23T07:46:54Z</time>
      </trkpt>
      <trkpt lat="44.26542" lon="3.73556">
        <ele>774</ele>
        <time>2021-07-23T07:47:19Z</time>
      </trkpt>
      <trkpt lat="44.26549" lon="3.73548">
        <ele>775.92</ele>
        <time>2021-07-23T07:47:35Z</time>
      </trkpt>
      <trkpt lat="44.2656" lon="3.7353">
        <ele>777.84</ele>
        <time>2021-07-23T07:47:47Z</time>
      </trkpt>
      <trkpt lat="44.26573" lon="3.73513">
        <ele>780.73</ele>
        <time>2021-07-23T07:48:01Z</time>
      </trkpt>
      <trkpt lat="44.26585" lon="3.73497">
        <ele>782.65</ele>
        <time>2021-07-23T07:48:11Z</time>
      </trkpt>
      <trkpt lat="44.26594" lon="3.73487">
        <ele>783.13</ele>
        <time>2021-07-23T07:48:21Z</time>
      </trkpt>
      <trkpt lat="44.26598" lon="3.73479">
        <ele>785.05</ele>
        <time>2021-07-23T07:48:25Z</time>
      </trkpt>
      <trkpt lat="44.26618" lon="3.73464">
        <ele>786.98</ele>
        <time>2021-07-23T07:48:41Z</time>
      </trkpt>
      <trkpt lat="44.26638" lon="3.73467">
        <ele>789.38</ele>
        <time>2021-07-23T07:48:54Z</time>
      </trkpt>
      <trkpt lat="44.26648" lon="3.73471">
        <ele>788.9</ele>
        <time>2021-07-23T07:49:01Z</time>
      </trkpt>
      <trkpt lat="44.26667" lon="3.73466">
        <ele>791.78</ele>
        <time>2021-07-23T07:49:17Z</time>
      </trkpt>
      <trkpt lat="44.26684" lon="3.73466">
        <ele>790.82</ele>
        <time>2021-07-23T07:49:31Z</time>
      </trkpt>
      <trkpt lat="44.26698" lon="3.73465">
        <ele>790.82</ele>
        <time>2021-07-23T07:49:46Z</time>
      </trkpt>
      <trkpt lat="44.26716" lon="3.73467">
        <ele>792.26</ele>
        <time>2021-07-23T07:49:59Z</time>
      </trkpt>
      <trkpt lat="44.26733" lon="3.73469">
        <ele>792.74</ele>
        <time>2021-07-23T07:50:13Z</time>
      </trkpt>
      <trkpt lat="44.26737" lon="3.73469">
        <ele>793.22</ele>
        <time>2021-07-23T07:50:16Z</time>
      </trkpt>
      <trkpt lat="44.26749" lon="3.73463">
        <ele>794.19</ele>
        <time>2021-07-23T07:50:28Z</time>
      </trkpt>
      <trkpt lat="44.26756" lon="3.73457">
        <ele>794.19</ele>
        <time>2021-07-23T07:50:35Z</time>
      </trkpt>
      <trkpt lat="44.26765" lon="3.73442">
        <ele>795.63</ele>
        <time>2021-07-23T07:50:45Z</time>
      </trkpt>
      <trkpt lat="44.26773" lon="3.73427">
        <ele>796.59</ele>
        <time>2021-07-23T07:50:56Z</time>
      </trkpt>
      <trkpt lat="44.26774" lon="3.73421">
        <ele>797.07</ele>
        <time>2021-07-23T07:51:00Z</time>
      </trkpt>
      <trkpt lat="44.26776" lon="3.73411">
        <ele>798.03</ele>
        <time>2021-07-23T07:51:06Z</time>
      </trkpt>
      <trkpt lat="44.26782" lon="3.73394">
        <ele>799.47</ele>
        <time>2021-07-23T07:51:16Z</time>
      </trkpt>
      <trkpt lat="44.26782" lon="3.73389">
        <ele>799.47</ele>
        <time>2021-07-23T07:51:19Z</time>
      </trkpt>
      <trkpt lat="44.26788" lon="3.73376">
        <ele>799.47</ele>
        <time>2021-07-23T07:51:27Z</time>
      </trkpt>
      <trkpt lat="44.26784" lon="3.7337">
        <ele>800.44</ele>
        <time>2021-07-23T07:51:32Z</time>
      </trkpt>
      <trkpt lat="44.26791" lon="3.73358">
        <ele>801.88</ele>
        <time>2021-07-23T07:51:39Z</time>
      </trkpt>
      <trkpt lat="44.26796" lon="3.7335">
        <ele>801.4</ele>
        <time>2021-07-23T07:51:45Z</time>
      </trkpt>
      <trkpt lat="44.26799" lon="3.73337">
        <ele>801.4</ele>
        <time>2021-07-23T07:51:53Z</time>
      </trkpt>
      <trkpt lat="44.26803" lon="3.7333">
        <ele>800.44</ele>
        <time>2021-07-23T07:51:59Z</time>
      </trkpt>
      <trkpt lat="44.26805" lon="3.73326">
        <ele>800.92</ele>
        <time>2021-07-23T07:52:02Z</time>
      </trkpt>
      <trkpt lat="44.26813" lon="3.73312">
        <ele>801.88</ele>
        <time>2021-07-23T07:52:16Z</time>
      </trkpt>
      <trkpt lat="44.26818" lon="3.73308">
        <ele>801.88</ele>
        <time>2021-07-23T07:52:21Z</time>
      </trkpt>
      <trkpt lat="44.26823" lon="3.73304">
        <ele>803.32</ele>
        <time>2021-07-23T07:52:24Z</time>
      </trkpt>
      <trkpt lat="44.26827" lon="3.73295">
        <ele>806.68</ele>
        <time>2021-07-23T07:52:31Z</time>
      </trkpt>
      <trkpt lat="44.26828" lon="3.73282">
        <ele>811.01</ele>
        <time>2021-07-23T07:52:40Z</time>
      </trkpt>
      <trkpt lat="44.26818" lon="3.73269">
        <ele>811.49</ele>
        <time>2021-07-23T07:52:51Z</time>
      </trkpt>
      <trkpt lat="44.26804" lon="3.73256">
        <ele>810.53</ele>
        <time>2021-07-23T07:53:07Z</time>
      </trkpt>
      <trkpt lat="44.26797" lon="3.73251">
        <ele>810.53</ele>
        <time>2021-07-23T07:53:15Z</time>
      </trkpt>
      <trkpt lat="44.2679" lon="3.73251">
        <ele>810.05</ele>
        <time>2021-07-23T07:53:21Z</time>
      </trkpt>
      <trkpt lat="44.26779" lon="3.73257">
        <ele>808.13</ele>
        <time>2021-07-23T07:53:36Z</time>
      </trkpt>
      <trkpt lat="44.26767" lon="3.73263">
        <ele>806.68</ele>
        <time>2021-07-23T07:53:48Z</time>
      </trkpt>
      <trkpt lat="44.26753" lon="3.73262">
        <ele>811.01</ele>
        <time>2021-07-23T07:54:02Z</time>
      </trkpt>
      <trkpt lat="44.26751" lon="3.73263">
        <ele>811.97</ele>
        <time>2021-07-23T07:54:04Z</time>
      </trkpt>
      <trkpt lat="44.26737" lon="3.73264">
        <ele>814.37</ele>
        <time>2021-07-23T07:54:15Z</time>
      </trkpt>
      <trkpt lat="44.26731" lon="3.73263">
        <ele>815.82</ele>
        <time>2021-07-23T07:54:21Z</time>
      </trkpt>
      <trkpt lat="44.26721" lon="3.73263">
        <ele>817.74</ele>
        <time>2021-07-23T07:54:28Z</time>
      </trkpt>
      <trkpt lat="44.26711" lon="3.73262">
        <ele>822.06</ele>
        <time>2021-07-23T07:54:40Z</time>
      </trkpt>
      <trkpt lat="44.26707" lon="3.73261">
        <ele>822.55</ele>
        <time>2021-07-23T07:54:44Z</time>
      </trkpt>
      <trkpt lat="44.26694" lon="3.73262">
        <ele>820.62</ele>
        <time>2021-07-23T07:54:56Z</time>
      </trkpt>
      <trkpt lat="44.26674" lon="3.73267">
        <ele>823.51</ele>
        <time>2021-07-23T07:55:10Z</time>
      </trkpt>
      <trkpt lat="44.26669" lon="3.73271">
        <ele>825.43</ele>
        <time>2021-07-23T07:55:14Z</time>
      </trkpt>
      <trkpt lat="44.26664" lon="3.73274">
        <ele>826.39</ele>
        <time>2021-07-23T07:55:19Z</time>
      </trkpt>
      <trkpt lat="44.26659" lon="3.73275">
        <ele>826.39</ele>
        <time>2021-07-23T07:55:34Z</time>
      </trkpt>
      <trkpt lat="44.26658" lon="3.73275">
        <ele>827.83</ele>
        <time>2021-07-23T07:55:51Z</time>
      </trkpt>
      <trkpt lat="44.26658" lon="3.73277">
        <ele>826.39</ele>
        <time>2021-07-23T07:56:05Z</time>
      </trkpt>
      <trkpt lat="44.26655" lon="3.73279">
        <ele>828.79</ele>
        <time>2021-07-23T07:56:35Z</time>
      </trkpt>
      <trkpt lat="44.26658" lon="3.73277">
        <ele>825.91</ele>
        <time>2021-07-23T07:57:00Z</time>
      </trkpt>
      <trkpt lat="44.26658" lon="3.73278">
        <ele>823.51</ele>
        <time>2021-07-23T07:57:28Z</time>
      </trkpt>
      <trkpt lat="44.26659" lon="3.73279">
        <ele>822.55</ele>
        <time>2021-07-23T07:58:03Z</time>
      </trkpt>
      <trkpt lat="44.26658" lon="3.73277">
        <ele>821.58</ele>
        <time>2021-07-23T07:58:32Z</time>
      </trkpt>
      <trkpt lat="44.26657" lon="3.73277">
        <ele>823.03</ele>
        <time>2021-07-23T07:58:49Z</time>
      </trkpt>
      <trkpt lat="44.26655" lon="3.73276">
        <ele>823.03</ele>
        <time>2021-07-23T07:59:02Z</time>
      </trkpt>
      <trkpt lat="44.26636" lon="3.73272">
        <ele>825.43</ele>
        <time>2021-07-23T07:59:15Z</time>
      </trkpt>
      <trkpt lat="44.26615" lon="3.73268">
        <ele>826.87</ele>
        <time>2021-07-23T07:59:28Z</time>
      </trkpt>
      <trkpt lat="44.26593" lon="3.73267">
        <ele>828.31</ele>
        <time>2021-07-23T07:59:42Z</time>
      </trkpt>
      <trkpt lat="44.26578" lon="3.73265">
        <ele>829.27</ele>
        <time>2021-07-23T07:59:52Z</time>
      </trkpt>
      <trkpt lat="44.26572" lon="3.73264">
        <ele>829.27</ele>
        <time>2021-07-23T07:59:55Z</time>
      </trkpt>
      <trkpt lat="44.26551" lon="3.73262">
        <ele>831.68</ele>
        <time>2021-07-23T08:00:09Z</time>
      </trkpt>
      <trkpt lat="44.2652" lon="3.73258">
        <ele>831.68</ele>
        <time>2021-07-23T08:00:26Z</time>
      </trkpt>
      <trkpt lat="44.26497" lon="3.73258">
        <ele>834.56</ele>
        <time>2021-07-23T08:00:42Z</time>
      </trkpt>
      <trkpt lat="44.26491" lon="3.73257">
        <ele>835.04</ele>
        <time>2021-07-23T08:00:46Z</time>
      </trkpt>
      <trkpt lat="44.26475" lon="3.73256">
        <ele>837.45</ele>
        <time>2021-07-23T08:00:57Z</time>
      </trkpt>
      <trkpt lat="44.26468" lon="3.73254">
        <ele>837.45</ele>
        <time>2021-07-23T08:01:02Z</time>
      </trkpt>
      <trkpt lat="44.26463" lon="3.73251">
        <ele>837.45</ele>
        <time>2021-07-23T08:01:06Z</time>
      </trkpt>
      <trkpt lat="44.2645" lon="3.73243">
        <ele>839.85</ele>
        <time>2021-07-23T08:01:18Z</time>
      </trkpt>
      <trkpt lat="44.26442" lon="3.73234">
        <ele>843.21</ele>
        <time>2021-07-23T08:01:30Z</time>
      </trkpt>
      <trkpt lat="44.26438" lon="3.73228">
        <ele>844.18</ele>
        <time>2021-07-23T08:01:37Z</time>
      </trkpt>
      <trkpt lat="44.2643" lon="3.73201">
        <ele>847.06</ele>
        <time>2021-07-23T08:01:51Z</time>
      </trkpt>
      <trkpt lat="44.26424" lon="3.73182">
        <ele>848.02</ele>
        <time>2021-07-23T08:02:01Z</time>
      </trkpt>
      <trkpt lat="44.26423" lon="3.73176">
        <ele>848.98</ele>
        <time>2021-07-23T08:02:04Z</time>
      </trkpt>
      <trkpt lat="44.26422" lon="3.73168">
        <ele>850.9</ele>
        <time>2021-07-23T08:02:09Z</time>
      </trkpt>
      <trkpt lat="44.26416" lon="3.73146">
        <ele>852.35</ele>
        <time>2021-07-23T08:02:21Z</time>
      </trkpt>
      <trkpt lat="44.26407" lon="3.73128">
        <ele>850.9</ele>
        <time>2021-07-23T08:02:32Z</time>
      </trkpt>
      <trkpt lat="44.26406" lon="3.73122">
        <ele>850.42</ele>
        <time>2021-07-23T08:02:35Z</time>
      </trkpt>
      <trkpt lat="44.26389" lon="3.731">
        <ele>850.42</ele>
        <time>2021-07-23T08:02:48Z</time>
      </trkpt>
      <trkpt lat="44.26366" lon="3.73075">
        <ele>852.35</ele>
        <time>2021-07-23T08:02:59Z</time>
      </trkpt>
      <trkpt lat="44.26361" lon="3.7307">
        <ele>852.35</ele>
        <time>2021-07-23T08:03:01Z</time>
      </trkpt>
      <trkpt lat="44.26344" lon="3.73035">
        <ele>855.71</ele>
        <time>2021-07-23T08:03:13Z</time>
      </trkpt>
      <trkpt lat="44.26329" lon="3.73007">
        <ele>857.63</ele>
        <time>2021-07-23T08:03:22Z</time>
      </trkpt>
      <trkpt lat="44.26317" lon="3.7299">
        <ele>860.04</ele>
        <time>2021-07-23T08:03:28Z</time>
      </trkpt>
      <trkpt lat="44.26312" lon="3.72971">
        <ele>861.48</ele>
        <time>2021-07-23T08:03:33Z</time>
      </trkpt>
      <trkpt lat="44.26326" lon="3.72935">
        <ele>863.4</ele>
        <time>2021-07-23T08:03:43Z</time>
      </trkpt>
      <trkpt lat="44.26319" lon="3.72888">
        <ele>860.52</ele>
        <time>2021-07-23T08:03:55Z</time>
      </trkpt>
      <trkpt lat="44.26316" lon="3.72876">
        <ele>859.56</ele>
        <time>2021-07-23T08:03:59Z</time>
      </trkpt>
      <trkpt lat="44.26314" lon="3.72859">
        <ele>859.08</ele>
        <time>2021-07-23T08:04:04Z</time>
      </trkpt>
      <trkpt lat="44.26313" lon="3.7285">
        <ele>858.59</ele>
        <time>2021-07-23T08:04:07Z</time>
      </trkpt>
      <trkpt lat="44.26298" lon="3.72811">
        <ele>859.08</ele>
        <time>2021-07-23T08:04:20Z</time>
      </trkpt>
      <trkpt lat="44.2629" lon="3.72789">
        <ele>859.56</ele>
        <time>2021-07-23T08:04:27Z</time>
      </trkpt>
      <trkpt lat="44.26283" lon="3.72757">
        <ele>863.88</ele>
        <time>2021-07-23T08:04:38Z</time>
      </trkpt>
      <trkpt lat="44.26279" lon="3.72734">
        <ele>865.8</ele>
        <time>2021-07-23T08:04:47Z</time>
      </trkpt>
      <trkpt lat="44.26271" lon="3.7272">
        <ele>866.29</ele>
        <time>2021-07-23T08:04:53Z</time>
      </trkpt>
      <trkpt lat="44.26253" lon="3.72696">
        <ele>865.32</ele>
        <time>2021-07-23T08:05:05Z</time>
      </trkpt>
      <trkpt lat="44.26233" lon="3.72687">
        <ele>866.77</ele>
        <time>2021-07-23T08:05:16Z</time>
      </trkpt>
      <trkpt lat="44.26217" lon="3.72684">
        <ele>868.69</ele>
        <time>2021-07-23T08:05:25Z</time>
      </trkpt>
      <trkpt lat="44.26192" lon="3.72691">
        <ele>868.21</ele>
        <time>2021-07-23T08:05:37Z</time>
      </trkpt>
      <trkpt lat="44.26182" lon="3.72699">
        <ele>867.25</ele>
        <time>2021-07-23T08:05:43Z</time>
      </trkpt>
      <trkpt lat="44.26167" lon="3.7271">
        <ele>867.25</ele>
        <time>2021-07-23T08:05:49Z</time>
      </trkpt>
      <trkpt lat="44.26153" lon="3.72731">
        <ele>865.8</ele>
        <time>2021-07-23T08:05:58Z</time>
      </trkpt>
      <trkpt lat="44.26149" lon="3.72739">
        <ele>865.8</ele>
        <time>2021-07-23T08:06:02Z</time>
      </trkpt>
      <trkpt lat="44.26129" lon="3.72755">
        <ele>862.44</ele>
        <time>2021-07-23T08:06:14Z</time>
      </trkpt>
      <trkpt lat="44.26118" lon="3.72763">
        <ele>863.88</ele>
        <time>2021-07-23T08:06:22Z</time>
      </trkpt>
      <trkpt lat="44.26115" lon="3.72766">
        <ele>863.88</ele>
        <time>2021-07-23T08:06:25Z</time>
      </trkpt>
      <trkpt lat="44.26092" lon="3.72776">
        <ele>866.29</ele>
        <time>2021-07-23T08:06:41Z</time>
      </trkpt>
      <trkpt lat="44.26088" lon="3.72778">
        <ele>866.29</ele>
        <time>2021-07-23T08:06:44Z</time>
      </trkpt>
      <trkpt lat="44.26069" lon="3.72786">
        <ele>865.32</ele>
        <time>2021-07-23T08:06:57Z</time>
      </trkpt>
      <trkpt lat="44.26048" lon="3.72787">
        <ele>865.8</ele>
        <time>2021-07-23T08:07:09Z</time>
      </trkpt>
      <trkpt lat="44.26033" lon="3.72784">
        <ele>866.29</ele>
        <time>2021-07-23T08:07:15Z</time>
      </trkpt>
      <trkpt lat="44.26011" lon="3.72777">
        <ele>868.21</ele>
        <time>2021-07-23T08:07:27Z</time>
      </trkpt>
      <trkpt lat="44.2599" lon="3.7277">
        <ele>869.17</ele>
        <time>2021-07-23T08:07:38Z</time>
      </trkpt>
      <trkpt lat="44.25971" lon="3.72763">
        <ele>871.57</ele>
        <time>2021-07-23T08:07:48Z</time>
      </trkpt>
      <trkpt lat="44.25949" lon="3.7276">
        <ele>873.01</ele>
        <time>2021-07-23T08:07:57Z</time>
      </trkpt>
      <trkpt lat="44.25925" lon="3.72747">
        <ele>873.01</ele>
        <time>2021-07-23T08:08:08Z</time>
      </trkpt>
      <trkpt lat="44.25911" lon="3.72721">
        <ele>873.98</ele>
        <time>2021-07-23T08:08:19Z</time>
      </trkpt>
      <trkpt lat="44.25909" lon="3.72716">
        <ele>873.98</ele>
        <time>2021-07-23T08:08:21Z</time>
      </trkpt>
      <trkpt lat="44.25904" lon="3.72709">
        <ele>874.94</ele>
        <time>2021-07-23T08:08:24Z</time>
      </trkpt>
      <trkpt lat="44.259" lon="3.72696">
        <ele>876.86</ele>
        <time>2021-07-23T08:08:29Z</time>
      </trkpt>
      <trkpt lat="44.25898" lon="3.72689">
        <ele>878.3</ele>
        <time>2021-07-23T08:08:33Z</time>
      </trkpt>
      <trkpt lat="44.25891" lon="3.72668">
        <ele>885.51</ele>
        <time>2021-07-23T08:08:45Z</time>
      </trkpt>
      <trkpt lat="44.25891" lon="3.72666">
        <ele>886.47</ele>
        <time>2021-07-23T08:08:46Z</time>
      </trkpt>
      <trkpt lat="44.25883" lon="3.72647">
        <ele>887.91</ele>
        <time>2021-07-23T08:08:57Z</time>
      </trkpt>
      <trkpt lat="44.25878" lon="3.72626">
        <ele>889.36</ele>
        <time>2021-07-23T08:09:10Z</time>
      </trkpt>
      <trkpt lat="44.2588" lon="3.7261">
        <ele>886.95</ele>
        <time>2021-07-23T08:09:22Z</time>
      </trkpt>
      <trkpt lat="44.2588" lon="3.72593">
        <ele>883.11</ele>
        <time>2021-07-23T08:09:36Z</time>
      </trkpt>
      <trkpt lat="44.2588" lon="3.72588">
        <ele>883.59</ele>
        <time>2021-07-23T08:09:42Z</time>
      </trkpt>
      <trkpt lat="44.25876" lon="3.7258">
        <ele>884.07</ele>
        <time>2021-07-23T08:09:47Z</time>
      </trkpt>
      <trkpt lat="44.25861" lon="3.72564">
        <ele>887.91</ele>
        <time>2021-07-23T08:10:02Z</time>
      </trkpt>
      <trkpt lat="44.25852" lon="3.72558">
        <ele>892.72</ele>
        <time>2021-07-23T08:10:11Z</time>
      </trkpt>
      <trkpt lat="44.25841" lon="3.72543">
        <ele>897.05</ele>
        <time>2021-07-23T08:10:24Z</time>
      </trkpt>
      <trkpt lat="44.25829" lon="3.72531">
        <ele>900.41</ele>
        <time>2021-07-23T08:10:37Z</time>
      </trkpt>
      <trkpt lat="44.25817" lon="3.72523">
        <ele>902.82</ele>
        <time>2021-07-23T08:10:51Z</time>
      </trkpt>
      <trkpt lat="44.25803" lon="3.72516">
        <ele>904.74</ele>
        <time>2021-07-23T08:11:03Z</time>
      </trkpt>
      <trkpt lat="44.25795" lon="3.72512">
        <ele>905.7</ele>
        <time>2021-07-23T08:11:09Z</time>
      </trkpt>
      <trkpt lat="44.25783" lon="3.72503">
        <ele>907.62</ele>
        <time>2021-07-23T08:11:21Z</time>
      </trkpt>
      <trkpt lat="44.25771" lon="3.72492">
        <ele>908.58</ele>
        <time>2021-07-23T08:11:35Z</time>
      </trkpt>
      <trkpt lat="44.25761" lon="3.72483">
        <ele>910.03</ele>
        <time>2021-07-23T08:11:47Z</time>
      </trkpt>
      <trkpt lat="44.25752" lon="3.72475">
        <ele>910.03</ele>
        <time>2021-07-23T08:11:58Z</time>
      </trkpt>
      <trkpt lat="44.25748" lon="3.72469">
        <ele>911.47</ele>
        <time>2021-07-23T08:12:04Z</time>
      </trkpt>
      <trkpt lat="44.25733" lon="3.72461">
        <ele>913.39</ele>
        <time>2021-07-23T08:12:18Z</time>
      </trkpt>
      <trkpt lat="44.25719" lon="3.72449">
        <ele>912.91</ele>
        <time>2021-07-23T08:12:33Z</time>
      </trkpt>
      <trkpt lat="44.25716" lon="3.72446">
        <ele>913.87</ele>
        <time>2021-07-23T08:12:37Z</time>
      </trkpt>
      <trkpt lat="44.25709" lon="3.72446">
        <ele>914.83</ele>
        <time>2021-07-23T08:12:50Z</time>
      </trkpt>
      <trkpt lat="44.25711" lon="3.72447">
        <ele>915.79</ele>
        <time>2021-07-23T08:13:01Z</time>
      </trkpt>
      <trkpt lat="44.25709" lon="3.72449">
        <ele>913.87</ele>
        <time>2021-07-23T08:13:21Z</time>
      </trkpt>
      <trkpt lat="44.25706" lon="3.7245">
        <ele>912.91</ele>
        <time>2021-07-23T08:13:52Z</time>
      </trkpt>
      <trkpt lat="44.25705" lon="3.72451">
        <ele>913.39</ele>
        <time>2021-07-23T08:14:25Z</time>
      </trkpt>
      <trkpt lat="44.25706" lon="3.72452">
        <ele>911.95</ele>
        <time>2021-07-23T08:14:48Z</time>
      </trkpt>
      <trkpt lat="44.25708" lon="3.72451">
        <ele>910.99</ele>
        <time>2021-07-23T08:15:12Z</time>
      </trkpt>
      <trkpt lat="44.25707" lon="3.7245">
        <ele>910.99</ele>
        <time>2021-07-23T08:15:19Z</time>
      </trkpt>
      <trkpt lat="44.25693" lon="3.7245">
        <ele>911.95</ele>
        <time>2021-07-23T08:15:32Z</time>
      </trkpt>
      <trkpt lat="44.25676" lon="3.72452">
        <ele>914.35</ele>
        <time>2021-07-23T08:15:43Z</time>
      </trkpt>
      <trkpt lat="44.25653" lon="3.72449">
        <ele>923.48</ele>
        <time>2021-07-23T08:15:58Z</time>
      </trkpt>
      <trkpt lat="44.25646" lon="3.72449">
        <ele>925.89</ele>
        <time>2021-07-23T08:16:03Z</time>
      </trkpt>
      <trkpt lat="44.25631" lon="3.72442">
        <ele>929.25</ele>
        <time>2021-07-23T08:16:14Z</time>
      </trkpt>
      <trkpt lat="44.25616" lon="3.72438">
        <ele>932.14</ele>
        <time>2021-07-23T08:16:25Z</time>
      </trkpt>
      <trkpt lat="44.256" lon="3.72427">
        <ele>933.58</ele>
        <time>2021-07-23T08:16:39Z</time>
      </trkpt>
      <trkpt lat="44.25583" lon="3.72418">
        <ele>936.46</ele>
        <time>2021-07-23T08:16:53Z</time>
      </trkpt>
      <trkpt lat="44.25573" lon="3.72411">
        <ele>938.38</ele>
        <time>2021-07-23T08:17:03Z</time>
      </trkpt>
      <trkpt lat="44.2556" lon="3.72404">
        <ele>938.86</ele>
        <time>2021-07-23T08:17:15Z</time>
      </trkpt>
      <trkpt lat="44.25541" lon="3.72393">
        <ele>933.58</ele>
        <time>2021-07-23T08:17:29Z</time>
      </trkpt>
      <trkpt lat="44.25527" lon="3.72391">
        <ele>932.14</ele>
        <time>2021-07-23T08:17:41Z</time>
      </trkpt>
      <trkpt lat="44.25513" lon="3.72388">
        <ele>932.14</ele>
        <time>2021-07-23T08:17:55Z</time>
      </trkpt>
      <trkpt lat="44.25501" lon="3.72391">
        <ele>931.65</ele>
        <time>2021-07-23T08:18:03Z</time>
      </trkpt>
      <trkpt lat="44.25482" lon="3.72395">
        <ele>932.14</ele>
        <time>2021-07-23T08:18:18Z</time>
      </trkpt>
      <trkpt lat="44.25465" lon="3.72402">
        <ele>936.46</ele>
        <time>2021-07-23T08:18:33Z</time>
      </trkpt>
      <trkpt lat="44.25462" lon="3.72404">
        <ele>936.46</ele>
        <time>2021-07-23T08:18:35Z</time>
      </trkpt>
      <trkpt lat="44.25442" lon="3.7242">
        <ele>934.06</ele>
        <time>2021-07-23T08:18:52Z</time>
      </trkpt>
      <trkpt lat="44.25423" lon="3.72425">
        <ele>934.06</ele>
        <time>2021-07-23T08:19:05Z</time>
      </trkpt>
      <trkpt lat="44.254" lon="3.72424">
        <ele>935.98</ele>
        <time>2021-07-23T08:19:20Z</time>
      </trkpt>
      <trkpt lat="44.25398" lon="3.72424">
        <ele>936.94</ele>
        <time>2021-07-23T08:19:23Z</time>
      </trkpt>
      <trkpt lat="44.25379" lon="3.72425">
        <ele>942.71</ele>
        <time>2021-07-23T08:19:37Z</time>
      </trkpt>
      <trkpt lat="44.25362" lon="3.72431">
        <ele>946.56</ele>
        <time>2021-07-23T08:19:47Z</time>
      </trkpt>
      <trkpt lat="44.25344" lon="3.72427">
        <ele>949.44</ele>
        <time>2021-07-23T08:19:57Z</time>
      </trkpt>
      <trkpt lat="44.25341" lon="3.72424">
        <ele>949.92</ele>
        <time>2021-07-23T08:19:59Z</time>
      </trkpt>
      <trkpt lat="44.25328" lon="3.72411">
        <ele>952.8</ele>
        <time>2021-07-23T08:20:11Z</time>
      </trkpt>
      <trkpt lat="44.25326" lon="3.72406">
        <ele>953.28</ele>
        <time>2021-07-23T08:20:15Z</time>
      </trkpt>
      <trkpt lat="44.25318" lon="3.72392">
        <ele>954.25</ele>
        <time>2021-07-23T08:20:25Z</time>
      </trkpt>
      <trkpt lat="44.25317" lon="3.72387">
        <ele>953.77</ele>
        <time>2021-07-23T08:20:28Z</time>
      </trkpt>
      <trkpt lat="44.25302" lon="3.72374">
        <ele>951.84</ele>
        <time>2021-07-23T08:20:41Z</time>
      </trkpt>
      <trkpt lat="44.25284" lon="3.72367">
        <ele>953.77</ele>
        <time>2021-07-23T08:20:55Z</time>
      </trkpt>
      <trkpt lat="44.25279" lon="3.72368">
        <ele>951.36</ele>
        <time>2021-07-23T08:21:00Z</time>
      </trkpt>
      <trkpt lat="44.25276" lon="3.72369">
        <ele>950.88</ele>
        <time>2021-07-23T08:21:03Z</time>
      </trkpt>
      <trkpt lat="44.25263" lon="3.72378">
        <ele>949.92</ele>
        <time>2021-07-23T08:21:14Z</time>
      </trkpt>
      <trkpt lat="44.25244" lon="3.72394">
        <ele>950.88</ele>
        <time>2021-07-23T08:21:30Z</time>
      </trkpt>
      <trkpt lat="44.25236" lon="3.72408">
        <ele>951.84</ele>
        <time>2021-07-23T08:21:41Z</time>
      </trkpt>
      <trkpt lat="44.25225" lon="3.72412">
        <ele>955.69</ele>
        <time>2021-07-23T08:21:51Z</time>
      </trkpt>
      <trkpt lat="44.25221" lon="3.72412">
        <ele>956.17</ele>
        <time>2021-07-23T08:21:54Z</time>
      </trkpt>
      <trkpt lat="44.25218" lon="3.72411">
        <ele>956.65</ele>
        <time>2021-07-23T08:21:57Z</time>
      </trkpt>
      <trkpt lat="44.25211" lon="3.72411">
        <ele>957.13</ele>
        <time>2021-07-23T08:22:03Z</time>
      </trkpt>
      <trkpt lat="44.25208" lon="3.72411">
        <ele>956.65</ele>
        <time>2021-07-23T08:22:05Z</time>
      </trkpt>
      <trkpt lat="44.2519" lon="3.72412">
        <ele>956.17</ele>
        <time>2021-07-23T08:22:20Z</time>
      </trkpt>
      <trkpt lat="44.25178" lon="3.72413">
        <ele>954.25</ele>
        <time>2021-07-23T08:22:32Z</time>
      </trkpt>
      <trkpt lat="44.25162" lon="3.72408">
        <ele>949.44</ele>
        <time>2021-07-23T08:22:42Z</time>
      </trkpt>
      <trkpt lat="44.25153" lon="3.72405">
        <ele>948</ele>
        <time>2021-07-23T08:22:49Z</time>
      </trkpt>
      <trkpt lat="44.2515" lon="3.72404">
        <ele>947.52</ele>
        <time>2021-07-23T08:22:51Z</time>
      </trkpt>
      <trkpt lat="44.25134" lon="3.72398">
        <ele>948.96</ele>
        <time>2021-07-23T08:23:04Z</time>
      </trkpt>
      <trkpt lat="44.25115" lon="3.72394">
        <ele>951.84</ele>
        <time>2021-07-23T08:23:18Z</time>
      </trkpt>
      <trkpt lat="44.2509" lon="3.72393">
        <ele>959.05</ele>
        <time>2021-07-23T08:23:34Z</time>
      </trkpt>
      <trkpt lat="44.25066" lon="3.72404">
        <ele>966.26</ele>
        <time>2021-07-23T08:23:48Z</time>
      </trkpt>
      <trkpt lat="44.25051" lon="3.72411">
        <ele>969.63</ele>
        <time>2021-07-23T08:23:59Z</time>
      </trkpt>
      <trkpt lat="44.25034" lon="3.72419">
        <ele>968.18</ele>
        <time>2021-07-23T08:24:10Z</time>
      </trkpt>
      <trkpt lat="44.25007" lon="3.72421">
        <ele>968.18</ele>
        <time>2021-07-23T08:24:20Z</time>
      </trkpt>
      <trkpt lat="44.24978" lon="3.72415">
        <ele>961.94</ele>
        <time>2021-07-23T08:24:31Z</time>
      </trkpt>
      <trkpt lat="44.24945" lon="3.72401">
        <ele>948.96</ele>
        <time>2021-07-23T08:24:44Z</time>
      </trkpt>
      <trkpt lat="44.24927" lon="3.72395">
        <ele>947.52</ele>
        <time>2021-07-23T08:24:54Z</time>
      </trkpt>
      <trkpt lat="44.249" lon="3.72385">
        <ele>947.52</ele>
        <time>2021-07-23T08:25:07Z</time>
      </trkpt>
      <trkpt lat="44.24879" lon="3.72383">
        <ele>949.92</ele>
        <time>2021-07-23T08:25:20Z</time>
      </trkpt>
      <trkpt lat="44.24871" lon="3.72383">
        <ele>950.88</ele>
        <time>2021-07-23T08:25:26Z</time>
      </trkpt>
      <trkpt lat="44.24856" lon="3.72387">
        <ele>954.25</ele>
        <time>2021-07-23T08:25:39Z</time>
      </trkpt>
      <trkpt lat="44.24851" lon="3.7239">
        <ele>956.17</ele>
        <time>2021-07-23T08:25:45Z</time>
      </trkpt>
      <trkpt lat="44.24836" lon="3.72402">
        <ele>958.57</ele>
        <time>2021-07-23T08:26:00Z</time>
      </trkpt>
      <trkpt lat="44.24832" lon="3.72405">
        <ele>959.05</ele>
        <time>2021-07-23T08:26:03Z</time>
      </trkpt>
      <trkpt lat="44.24826" lon="3.72408">
        <ele>959.05</ele>
        <time>2021-07-23T08:26:08Z</time>
      </trkpt>
      <trkpt lat="44.24811" lon="3.72427">
        <ele>962.9</ele>
        <time>2021-07-23T08:26:24Z</time>
      </trkpt>
      <trkpt lat="44.24807" lon="3.72434">
        <ele>962.9</ele>
        <time>2021-07-23T08:26:30Z</time>
      </trkpt>
      <trkpt lat="44.24802" lon="3.72439">
        <ele>962.9</ele>
        <time>2021-07-23T08:26:34Z</time>
      </trkpt>
      <trkpt lat="44.24797" lon="3.72446">
        <ele>961.94</ele>
        <time>2021-07-23T08:26:39Z</time>
      </trkpt>
      <trkpt lat="44.24788" lon="3.72455">
        <ele>960.49</ele>
        <time>2021-07-23T08:26:48Z</time>
      </trkpt>
      <trkpt lat="44.24785" lon="3.72459">
        <ele>959.53</ele>
        <time>2021-07-23T08:26:51Z</time>
      </trkpt>
      <trkpt lat="44.24777" lon="3.72469">
        <ele>960.49</ele>
        <time>2021-07-23T08:27:03Z</time>
      </trkpt>
      <trkpt lat="44.24766" lon="3.72484">
        <ele>962.9</ele>
        <time>2021-07-23T08:27:16Z</time>
      </trkpt>
      <trkpt lat="44.24761" lon="3.72492">
        <ele>965.3</ele>
        <time>2021-07-23T08:27:22Z</time>
      </trkpt>
      <trkpt lat="44.24755" lon="3.72499">
        <ele>967.7</ele>
        <time>2021-07-23T08:27:27Z</time>
      </trkpt>
      <trkpt lat="44.2474" lon="3.72511">
        <ele>973.47</ele>
        <time>2021-07-23T08:27:40Z</time>
      </trkpt>
      <trkpt lat="44.24722" lon="3.72516">
        <ele>975.88</ele>
        <time>2021-07-23T08:27:52Z</time>
      </trkpt>
      <trkpt lat="44.24702" lon="3.72516">
        <ele>978.28</ele>
        <time>2021-07-23T08:28:02Z</time>
      </trkpt>
      <trkpt lat="44.24665" lon="3.72527">
        <ele>975.39</ele>
        <time>2021-07-23T08:28:14Z</time>
      </trkpt>
      <trkpt lat="44.24628" lon="3.7254">
        <ele>971.07</ele>
        <time>2021-07-23T08:28:25Z</time>
      </trkpt>
      <trkpt lat="44.24605" lon="3.7254">
        <ele>970.59</ele>
        <time>2021-07-23T08:28:31Z</time>
      </trkpt>
      <trkpt lat="44.24545" lon="3.7256">
        <ele>966.74</ele>
        <time>2021-07-23T08:28:44Z</time>
      </trkpt>
      <trkpt lat="44.24525" lon="3.72564">
        <ele>963.38</ele>
        <time>2021-07-23T08:28:49Z</time>
      </trkpt>
      <trkpt lat="44.24508" lon="3.72562">
        <ele>961.94</ele>
        <time>2021-07-23T08:28:54Z</time>
      </trkpt>
      <trkpt lat="44.24469" lon="3.72555">
        <ele>961.46</ele>
        <time>2021-07-23T08:29:06Z</time>
      </trkpt>
      <trkpt lat="44.24442" lon="3.72562">
        <ele>962.9</ele>
        <time>2021-07-23T08:29:17Z</time>
      </trkpt>
      <trkpt lat="44.24441" lon="3.72564">
        <ele>961.46</ele>
        <time>2021-07-23T08:29:33Z</time>
      </trkpt>
      <trkpt lat="44.2444" lon="3.72566">
        <ele>960.98</ele>
        <time>2021-07-23T08:30:05Z</time>
      </trkpt>
      <trkpt lat="44.24437" lon="3.72565">
        <ele>958.57</ele>
        <time>2021-07-23T08:30:40Z</time>
      </trkpt>
      <trkpt lat="44.24437" lon="3.72566">
        <ele>958.09</ele>
        <time>2021-07-23T08:31:10Z</time>
      </trkpt>
      <trkpt lat="44.24438" lon="3.72566">
        <ele>958.09</ele>
        <time>2021-07-23T08:31:36Z</time>
      </trkpt>
      <trkpt lat="44.24436" lon="3.72567">
        <ele>959.05</ele>
        <time>2021-07-23T08:32:01Z</time>
      </trkpt>
      <trkpt lat="44.24435" lon="3.72568">
        <ele>959.53</ele>
        <time>2021-07-23T08:32:20Z</time>
      </trkpt>
      <trkpt lat="44.24429" lon="3.72581">
        <ele>959.53</ele>
        <time>2021-07-23T08:32:28Z</time>
      </trkpt>
      <trkpt lat="44.2442" lon="3.72608">
        <ele>959.53</ele>
        <time>2021-07-23T08:32:32Z</time>
      </trkpt>
      <trkpt lat="44.24365" lon="3.72643">
        <ele>956.65</ele>
        <time>2021-07-23T08:32:41Z</time>
      </trkpt>
      <trkpt lat="44.24359" lon="3.7264">
        <ele>956.65</ele>
        <time>2021-07-23T08:32:42Z</time>
      </trkpt>
      <trkpt lat="44.24348" lon="3.72635">
        <ele>955.69</ele>
        <time>2021-07-23T08:32:45Z</time>
      </trkpt>
      <trkpt lat="44.24349" lon="3.72663">
        <ele>949.44</ele>
        <time>2021-07-23T08:32:52Z</time>
      </trkpt>
      <trkpt lat="44.2436" lon="3.72687">
        <ele>946.07</ele>
        <time>2021-07-23T08:32:56Z</time>
      </trkpt>
      <trkpt lat="44.24372" lon="3.72709">
        <ele>943.19</ele>
        <time>2021-07-23T08:32:59Z</time>
      </trkpt>
      <trkpt lat="44.24379" lon="3.72733">
        <ele>940.31</ele>
        <time>2021-07-23T08:33:02Z</time>
      </trkpt>
      <trkpt lat="44.24386" lon="3.72817">
        <ele>930.69</ele>
        <time>2021-07-23T08:33:12Z</time>
      </trkpt>
      <trkpt lat="44.24383" lon="3.72854">
        <ele>926.85</ele>
        <time>2021-07-23T08:33:17Z</time>
      </trkpt>
      <trkpt lat="44.24371" lon="3.72957">
        <ele>919.64</ele>
        <time>2021-07-23T08:33:27Z</time>
      </trkpt>
      <trkpt lat="44.24359" lon="3.73003">
        <ele>919.64</ele>
        <time>2021-07-23T08:33:31Z</time>
      </trkpt>
      <trkpt lat="44.24344" lon="3.7304">
        <ele>921.08</ele>
        <time>2021-07-23T08:33:37Z</time>
      </trkpt>
      <trkpt lat="44.2433" lon="3.73069">
        <ele>924.93</ele>
        <time>2021-07-23T08:33:49Z</time>
      </trkpt>
      <trkpt lat="44.24318" lon="3.73096">
        <ele>931.17</ele>
        <time>2021-07-23T08:34:03Z</time>
      </trkpt>
      <trkpt lat="44.24312" lon="3.73112">
        <ele>932.62</ele>
        <time>2021-07-23T08:34:12Z</time>
      </trkpt>
      <trkpt lat="44.24307" lon="3.73122">
        <ele>933.58</ele>
        <time>2021-07-23T08:34:18Z</time>
      </trkpt>
      <trkpt lat="44.24303" lon="3.73126">
        <ele>934.54</ele>
        <time>2021-07-23T08:34:21Z</time>
      </trkpt>
      <trkpt lat="44.24299" lon="3.73134">
        <ele>936.46</ele>
        <time>2021-07-23T08:34:25Z</time>
      </trkpt>
      <trkpt lat="44.2429" lon="3.73149">
        <ele>938.86</ele>
        <time>2021-07-23T08:34:34Z</time>
      </trkpt>
      <trkpt lat="44.24286" lon="3.73157">
        <ele>940.79</ele>
        <time>2021-07-23T08:34:38Z</time>
      </trkpt>
      <trkpt lat="44.24277" lon="3.73173">
        <ele>942.23</ele>
        <time>2021-07-23T08:34:48Z</time>
      </trkpt>
      <trkpt lat="44.24269" lon="3.73183">
        <ele>943.19</ele>
        <time>2021-07-23T08:35:00Z</time>
      </trkpt>
      <trkpt lat="44.24269" lon="3.73183">
        <ele>942.23</ele>
        <time>2021-07-23T08:35:20Z</time>
      </trkpt>
      <trkpt lat="44.24259" lon="3.73199">
        <ele>941.75</ele>
        <time>2021-07-23T08:35:32Z</time>
      </trkpt>
      <trkpt lat="44.24255" lon="3.7321">
        <ele>942.23</ele>
        <time>2021-07-23T08:35:38Z</time>
      </trkpt>
      <trkpt lat="44.24243" lon="3.73234">
        <ele>943.19</ele>
        <time>2021-07-23T08:35:51Z</time>
      </trkpt>
      <trkpt lat="44.2423" lon="3.73258">
        <ele>944.63</ele>
        <time>2021-07-23T08:36:03Z</time>
      </trkpt>
      <trkpt lat="44.24216" lon="3.73287">
        <ele>946.07</ele>
        <time>2021-07-23T08:36:16Z</time>
      </trkpt>
      <trkpt lat="44.24211" lon="3.73306">
        <ele>945.11</ele>
        <time>2021-07-23T08:36:29Z</time>
      </trkpt>
      <trkpt lat="44.24212" lon="3.73306">
        <ele>943.19</ele>
        <time>2021-07-23T08:36:58Z</time>
      </trkpt>
      <trkpt lat="44.24215" lon="3.73307">
        <ele>941.27</ele>
        <time>2021-07-23T08:37:32Z</time>
      </trkpt>
      <trkpt lat="44.24215" lon="3.73307">
        <ele>940.79</ele>
        <time>2021-07-23T08:38:06Z</time>
      </trkpt>
      <trkpt lat="44.24216" lon="3.73307">
        <ele>941.75</ele>
        <time>2021-07-23T08:38:36Z</time>
      </trkpt>
      <trkpt lat="44.24215" lon="3.73307">
        <ele>941.75</ele>
        <time>2021-07-23T08:39:08Z</time>
      </trkpt>
      <trkpt lat="44.24215" lon="3.73307">
        <ele>940.79</ele>
        <time>2021-07-23T08:39:40Z</time>
      </trkpt>
      <trkpt lat="44.24215" lon="3.73307">
        <ele>940.79</ele>
        <time>2021-07-23T08:39:56Z</time>
      </trkpt>
      <trkpt lat="44.24214" lon="3.73307">
        <ele>940.79</ele>
        <time>2021-07-23T08:40:13Z</time>
      </trkpt>
      <trkpt lat="44.24214" lon="3.73309">
        <ele>940.79</ele>
        <time>2021-07-23T08:40:17Z</time>
      </trkpt>
      <trkpt lat="44.24218" lon="3.73324">
        <ele>940.31</ele>
        <time>2021-07-23T08:40:25Z</time>
      </trkpt>
      <trkpt lat="44.24224" lon="3.73343">
        <ele>939.83</ele>
        <time>2021-07-23T08:40:37Z</time>
      </trkpt>
      <trkpt lat="44.24226" lon="3.73354">
        <ele>940.31</ele>
        <time>2021-07-23T08:40:43Z</time>
      </trkpt>
      <trkpt lat="44.24233" lon="3.73378">
        <ele>943.19</ele>
        <time>2021-07-23T08:40:55Z</time>
      </trkpt>
      <trkpt lat="44.24242" lon="3.73401">
        <ele>944.15</ele>
        <time>2021-07-23T08:41:09Z</time>
      </trkpt>
      <trkpt lat="44.24244" lon="3.73404">
        <ele>944.15</ele>
        <time>2021-07-23T08:41:11Z</time>
      </trkpt>
      <trkpt lat="44.24249" lon="3.73433">
        <ele>947.04</ele>
        <time>2021-07-23T08:41:26Z</time>
      </trkpt>
      <trkpt lat="44.24253" lon="3.73454">
        <ele>948.48</ele>
        <time>2021-07-23T08:41:40Z</time>
      </trkpt>
      <trkpt lat="44.24259" lon="3.73472">
        <ele>949.44</ele>
        <time>2021-07-23T08:41:51Z</time>
      </trkpt>
      <trkpt lat="44.24264" lon="3.7348">
        <ele>951.36</ele>
        <time>2021-07-23T08:41:57Z</time>
      </trkpt>
      <trkpt lat="44.2427" lon="3.73493">
        <ele>953.28</ele>
        <time>2021-07-23T08:42:04Z</time>
      </trkpt>
      <trkpt lat="44.24286" lon="3.73516">
        <ele>954.73</ele>
        <time>2021-07-23T08:42:20Z</time>
      </trkpt>
      <trkpt lat="44.24293" lon="3.73542">
        <ele>953.77</ele>
        <time>2021-07-23T08:42:34Z</time>
      </trkpt>
      <trkpt lat="44.24281" lon="3.73568">
        <ele>954.25</ele>
        <time>2021-07-23T08:42:50Z</time>
      </trkpt>
      <trkpt lat="44.24269" lon="3.73588">
        <ele>955.69</ele>
        <time>2021-07-23T08:43:02Z</time>
      </trkpt>
      <trkpt lat="44.24263" lon="3.73613">
        <ele>955.69</ele>
        <time>2021-07-23T08:43:18Z</time>
      </trkpt>
      <trkpt lat="44.24263" lon="3.73616">
        <ele>955.69</ele>
        <time>2021-07-23T08:43:20Z</time>
      </trkpt>
      <trkpt lat="44.24274" lon="3.7364">
        <ele>957.13</ele>
        <time>2021-07-23T08:43:35Z</time>
      </trkpt>
      <trkpt lat="44.24289" lon="3.7367">
        <ele>958.09</ele>
        <time>2021-07-23T08:43:51Z</time>
      </trkpt>
      <trkpt lat="44.2429" lon="3.73692">
        <ele>958.09</ele>
        <time>2021-07-23T08:44:03Z</time>
      </trkpt>
      <trkpt lat="44.24281" lon="3.73707">
        <ele>960.01</ele>
        <time>2021-07-23T08:44:13Z</time>
      </trkpt>
      <trkpt lat="44.2427" lon="3.7373">
        <ele>960.49</ele>
        <time>2021-07-23T08:44:27Z</time>
      </trkpt>
      <trkpt lat="44.24267" lon="3.73749">
        <ele>963.38</ele>
        <time>2021-07-23T08:44:39Z</time>
      </trkpt>
      <trkpt lat="44.24267" lon="3.73751">
        <ele>963.86</ele>
        <time>2021-07-23T08:44:40Z</time>
      </trkpt>
      <trkpt lat="44.2427" lon="3.73765">
        <ele>964.82</ele>
        <time>2021-07-23T08:44:50Z</time>
      </trkpt>
      <trkpt lat="44.24282" lon="3.73787">
        <ele>967.7</ele>
        <time>2021-07-23T08:45:04Z</time>
      </trkpt>
      <trkpt lat="44.24284" lon="3.73793">
        <ele>967.7</ele>
        <time>2021-07-23T08:45:08Z</time>
      </trkpt>
      <trkpt lat="44.24289" lon="3.7382">
        <ele>970.11</ele>
        <time>2021-07-23T08:45:23Z</time>
      </trkpt>
      <trkpt lat="44.24288" lon="3.7383">
        <ele>971.55</ele>
        <time>2021-07-23T08:45:29Z</time>
      </trkpt>
      <trkpt lat="44.24289" lon="3.7386">
        <ele>971.07</ele>
        <time>2021-07-23T08:45:46Z</time>
      </trkpt>
      <trkpt lat="44.24288" lon="3.73882">
        <ele>972.51</ele>
        <time>2021-07-23T08:45:56Z</time>
      </trkpt>
      <trkpt lat="44.24282" lon="3.73892">
        <ele>972.03</ele>
        <time>2021-07-23T08:46:04Z</time>
      </trkpt>
      <trkpt lat="44.24277" lon="3.73904">
        <ele>972.51</ele>
        <time>2021-07-23T08:46:11Z</time>
      </trkpt>
      <trkpt lat="44.24271" lon="3.73925">
        <ele>975.39</ele>
        <time>2021-07-23T08:46:22Z</time>
      </trkpt>
      <trkpt lat="44.24271" lon="3.73937">
        <ele>974.43</ele>
        <time>2021-07-23T08:46:28Z</time>
      </trkpt>
      <trkpt lat="44.24267" lon="3.73961">
        <ele>975.39</ele>
        <time>2021-07-23T08:46:41Z</time>
      </trkpt>
      <trkpt lat="44.24265" lon="3.73986">
        <ele>975.88</ele>
        <time>2021-07-23T08:46:54Z</time>
      </trkpt>
      <trkpt lat="44.24262" lon="3.74009">
        <ele>977.32</ele>
        <time>2021-07-23T08:47:07Z</time>
      </trkpt>
      <trkpt lat="44.24259" lon="3.74021">
        <ele>978.28</ele>
        <time>2021-07-23T08:47:13Z</time>
      </trkpt>
      <trkpt lat="44.24257" lon="3.74029">
        <ele>978.28</ele>
        <time>2021-07-23T08:47:17Z</time>
      </trkpt>
      <trkpt lat="44.2425" lon="3.74056">
        <ele>978.28</ele>
        <time>2021-07-23T08:47:31Z</time>
      </trkpt>
      <trkpt lat="44.2425" lon="3.74073">
        <ele>978.76</ele>
        <time>2021-07-23T08:47:39Z</time>
      </trkpt>
      <trkpt lat="44.24249" lon="3.74083">
        <ele>979.24</ele>
        <time>2021-07-23T08:47:44Z</time>
      </trkpt>
      <trkpt lat="44.24248" lon="3.74092">
        <ele>980.68</ele>
        <time>2021-07-23T08:47:48Z</time>
      </trkpt>
      <trkpt lat="44.24247" lon="3.74098">
        <ele>981.16</ele>
        <time>2021-07-23T08:47:51Z</time>
      </trkpt>
      <trkpt lat="44.24246" lon="3.74106">
        <ele>982.6</ele>
        <time>2021-07-23T08:47:55Z</time>
      </trkpt>
      <trkpt lat="44.24246" lon="3.7413">
        <ele>983.09</ele>
        <time>2021-07-23T08:48:06Z</time>
      </trkpt>
      <trkpt lat="44.24246" lon="3.74157">
        <ele>983.57</ele>
        <time>2021-07-23T08:48:18Z</time>
      </trkpt>
      <trkpt lat="44.24242" lon="3.74178">
        <ele>983.57</ele>
        <time>2021-07-23T08:48:30Z</time>
      </trkpt>
      <trkpt lat="44.24242" lon="3.74182">
        <ele>983.57</ele>
        <time>2021-07-23T08:48:32Z</time>
      </trkpt>
      <trkpt lat="44.24239" lon="3.7419">
        <ele>984.53</ele>
        <time>2021-07-23T08:48:37Z</time>
      </trkpt>
      <trkpt lat="44.24237" lon="3.74194">
        <ele>984.53</ele>
        <time>2021-07-23T08:48:39Z</time>
      </trkpt>
      <trkpt lat="44.24232" lon="3.74209">
        <ele>984.05</ele>
        <time>2021-07-23T08:48:46Z</time>
      </trkpt>
      <trkpt lat="44.24233" lon="3.74245">
        <ele>985.97</ele>
        <time>2021-07-23T08:49:03Z</time>
      </trkpt>
      <trkpt lat="44.24246" lon="3.74256">
        <ele>985.49</ele>
        <time>2021-07-23T08:49:13Z</time>
      </trkpt>
      <trkpt lat="44.24253" lon="3.74267">
        <ele>985.97</ele>
        <time>2021-07-23T08:49:21Z</time>
      </trkpt>
      <trkpt lat="44.24254" lon="3.74275">
        <ele>987.41</ele>
        <time>2021-07-23T08:49:25Z</time>
      </trkpt>
      <trkpt lat="44.24254" lon="3.74281">
        <ele>988.37</ele>
        <time>2021-07-23T08:49:28Z</time>
      </trkpt>
      <trkpt lat="44.2425" lon="3.74293">
        <ele>991.26</ele>
        <time>2021-07-23T08:49:35Z</time>
      </trkpt>
      <trkpt lat="44.24235" lon="3.74317">
        <ele>992.22</ele>
        <time>2021-07-23T08:49:52Z</time>
      </trkpt>
      <trkpt lat="44.24226" lon="3.74336">
        <ele>991.26</ele>
        <time>2021-07-23T08:50:04Z</time>
      </trkpt>
      <trkpt lat="44.24217" lon="3.74353">
        <ele>992.7</ele>
        <time>2021-07-23T08:50:16Z</time>
      </trkpt>
      <trkpt lat="44.24208" lon="3.74377">
        <ele>992.22</ele>
        <time>2021-07-23T08:50:31Z</time>
      </trkpt>
      <trkpt lat="44.24207" lon="3.74381">
        <ele>993.18</ele>
        <time>2021-07-23T08:50:34Z</time>
      </trkpt>
      <trkpt lat="44.24203" lon="3.74405">
        <ele>996.06</ele>
        <time>2021-07-23T08:50:46Z</time>
      </trkpt>
      <trkpt lat="44.24207" lon="3.74419">
        <ele>997.02</ele>
        <time>2021-07-23T08:50:53Z</time>
      </trkpt>
      <trkpt lat="44.24215" lon="3.74444">
        <ele>997.02</ele>
        <time>2021-07-23T08:51:07Z</time>
      </trkpt>
      <trkpt lat="44.24217" lon="3.7445">
        <ele>996.54</ele>
        <time>2021-07-23T08:51:09Z</time>
      </trkpt>
      <trkpt lat="44.24226" lon="3.74464">
        <ele>997.51</ele>
        <time>2021-07-23T08:51:22Z</time>
      </trkpt>
      <trkpt lat="44.24225" lon="3.74463">
        <ele>1000.87</ele>
        <time>2021-07-23T08:51:42Z</time>
      </trkpt>
      <trkpt lat="44.24226" lon="3.74464">
        <ele>1001.35</ele>
        <time>2021-07-23T08:52:07Z</time>
      </trkpt>
      <trkpt lat="44.24226" lon="3.74467">
        <ele>1001.83</ele>
        <time>2021-07-23T08:52:33Z</time>
      </trkpt>
      <trkpt lat="44.24226" lon="3.74467">
        <ele>1001.35</ele>
        <time>2021-07-23T08:53:07Z</time>
      </trkpt>
      <trkpt lat="44.24226" lon="3.74468">
        <ele>1003.27</ele>
        <time>2021-07-23T08:53:41Z</time>
      </trkpt>
      <trkpt lat="44.24225" lon="3.74467">
        <ele>1002.79</ele>
        <time>2021-07-23T08:54:06Z</time>
      </trkpt>
      <trkpt lat="44.24226" lon="3.74467">
        <ele>1002.79</ele>
        <time>2021-07-23T08:54:26Z</time>
      </trkpt>
      <trkpt lat="44.24227" lon="3.7447">
        <ele>1003.27</ele>
        <time>2021-07-23T08:54:32Z</time>
      </trkpt>
      <trkpt lat="44.2423" lon="3.74475">
        <ele>1003.27</ele>
        <time>2021-07-23T08:54:36Z</time>
      </trkpt>
      <trkpt lat="44.24239" lon="3.74494">
        <ele>1005.2</ele>
        <time>2021-07-23T08:54:47Z</time>
      </trkpt>
      <trkpt lat="44.24237" lon="3.74517">
        <ele>1004.72</ele>
        <time>2021-07-23T08:54:59Z</time>
      </trkpt>
      <trkpt lat="44.24236" lon="3.74528">
        <ele>1005.2</ele>
        <time>2021-07-23T08:55:04Z</time>
      </trkpt>
      <trkpt lat="44.24229" lon="3.74554">
        <ele>1006.16</ele>
        <time>2021-07-23T08:55:19Z</time>
      </trkpt>
      <trkpt lat="44.24222" lon="3.74585">
        <ele>1006.64</ele>
        <time>2021-07-23T08:55:34Z</time>
      </trkpt>
      <trkpt lat="44.24215" lon="3.74614">
        <ele>1011.44</ele>
        <time>2021-07-23T08:55:51Z</time>
      </trkpt>
      <trkpt lat="44.24214" lon="3.74627">
        <ele>1010.96</ele>
        <time>2021-07-23T08:55:58Z</time>
      </trkpt>
      <trkpt lat="44.2421" lon="3.74636">
        <ele>1009.52</ele>
        <time>2021-07-23T08:56:03Z</time>
      </trkpt>
      <trkpt lat="44.24202" lon="3.74669">
        <ele>1011.93</ele>
        <time>2021-07-23T08:56:19Z</time>
      </trkpt>
      <trkpt lat="44.24188" lon="3.74698">
        <ele>1013.85</ele>
        <time>2021-07-23T08:56:36Z</time>
      </trkpt>
      <trkpt lat="44.24185" lon="3.747">
        <ele>1013.85</ele>
        <time>2021-07-23T08:56:38Z</time>
      </trkpt>
      <trkpt lat="44.24184" lon="3.74704">
        <ele>1013.37</ele>
        <time>2021-07-23T08:56:51Z</time>
      </trkpt>
      <trkpt lat="44.24185" lon="3.74706">
        <ele>1013.85</ele>
        <time>2021-07-23T08:57:14Z</time>
      </trkpt>
      <trkpt lat="44.24184" lon="3.74706">
        <ele>1013.37</ele>
        <time>2021-07-23T08:57:39Z</time>
      </trkpt>
      <trkpt lat="44.24184" lon="3.74706">
        <ele>1012.89</ele>
        <time>2021-07-23T08:58:11Z</time>
      </trkpt>
      <trkpt lat="44.24183" lon="3.74707">
        <ele>1012.89</ele>
        <time>2021-07-23T08:58:35Z</time>
      </trkpt>
      <trkpt lat="44.24184" lon="3.7471">
        <ele>1013.37</ele>
        <time>2021-07-23T08:58:38Z</time>
      </trkpt>
      <trkpt lat="44.24179" lon="3.74726">
        <ele>1014.33</ele>
        <time>2021-07-23T08:58:48Z</time>
      </trkpt>
      <trkpt lat="44.24177" lon="3.74732">
        <ele>1015.29</ele>
        <time>2021-07-23T08:58:52Z</time>
      </trkpt>
      <trkpt lat="44.24177" lon="3.74762">
        <ele>1015.77</ele>
        <time>2021-07-23T08:59:10Z</time>
      </trkpt>
      <trkpt lat="44.24179" lon="3.74776">
        <ele>1015.77</ele>
        <time>2021-07-23T08:59:17Z</time>
      </trkpt>
      <trkpt lat="44.2418" lon="3.74784">
        <ele>1016.25</ele>
        <time>2021-07-23T08:59:21Z</time>
      </trkpt>
      <trkpt lat="44.24181" lon="3.74791">
        <ele>1017.21</ele>
        <time>2021-07-23T08:59:36Z</time>
      </trkpt>
      <trkpt lat="44.24184" lon="3.74803">
        <ele>1017.69</ele>
        <time>2021-07-23T08:59:48Z</time>
      </trkpt>
      <trkpt lat="44.24196" lon="3.74821">
        <ele>1020.1</ele>
        <time>2021-07-23T09:00:01Z</time>
      </trkpt>
      <trkpt lat="44.2421" lon="3.74832">
        <ele>1021.54</ele>
        <time>2021-07-23T09:00:13Z</time>
      </trkpt>
      <trkpt lat="44.24221" lon="3.7484">
        <ele>1022.98</ele>
        <time>2021-07-23T09:00:25Z</time>
      </trkpt>
      <trkpt lat="44.24232" lon="3.74846">
        <ele>1022.02</ele>
        <time>2021-07-23T09:00:34Z</time>
      </trkpt>
      <trkpt lat="44.24235" lon="3.74855">
        <ele>1022.02</ele>
        <time>2021-07-23T09:00:38Z</time>
      </trkpt>
      <trkpt lat="44.24258" lon="3.74922">
        <ele>1023.94</ele>
        <time>2021-07-23T09:00:50Z</time>
      </trkpt>
      <trkpt lat="44.24263" lon="3.74954">
        <ele>1023.94</ele>
        <time>2021-07-23T09:01:02Z</time>
      </trkpt>
      <trkpt lat="44.24264" lon="3.74956">
        <ele>1023.94</ele>
        <time>2021-07-23T09:01:18Z</time>
      </trkpt>
      <trkpt lat="44.24264" lon="3.74954">
        <ele>1022.98</ele>
        <time>2021-07-23T09:01:53Z</time>
      </trkpt>
      <trkpt lat="44.24264" lon="3.74954">
        <ele>1022.98</ele>
        <time>2021-07-23T09:02:27Z</time>
      </trkpt>
      <trkpt lat="44.24262" lon="3.74954">
        <ele>1025.86</ele>
        <time>2021-07-23T09:02:52Z</time>
      </trkpt>
      <trkpt lat="44.24263" lon="3.74956">
        <ele>1026.34</ele>
        <time>2021-07-23T09:03:06Z</time>
      </trkpt>
      <trkpt lat="44.24262" lon="3.74989">
        <ele>1027.31</ele>
        <time>2021-07-23T09:03:16Z</time>
      </trkpt>
      <trkpt lat="44.24269" lon="3.7501">
        <ele>1025.86</ele>
        <time>2021-07-23T09:03:20Z</time>
      </trkpt>
      <trkpt lat="44.24275" lon="3.75037">
        <ele>1024.42</ele>
        <time>2021-07-23T09:03:24Z</time>
      </trkpt>
      <trkpt lat="44.24275" lon="3.75078">
        <ele>1022.5</ele>
        <time>2021-07-23T09:03:31Z</time>
      </trkpt>
      <trkpt lat="44.24277" lon="3.75146">
        <ele>1017.21</ele>
        <time>2021-07-23T09:03:42Z</time>
      </trkpt>
      <trkpt lat="44.24271" lon="3.75182">
        <ele>1014.81</ele>
        <time>2021-07-23T09:03:48Z</time>
      </trkpt>
      <trkpt lat="44.24236" lon="3.75252">
        <ele>1011.93</ele>
        <time>2021-07-23T09:03:58Z</time>
      </trkpt>
      <trkpt lat="44.24191" lon="3.75311">
        <ele>1009.04</ele>
        <time>2021-07-23T09:04:07Z</time>
      </trkpt>
      <trkpt lat="44.24169" lon="3.75332">
        <ele>1007.12</ele>
        <time>2021-07-23T09:04:11Z</time>
      </trkpt>
      <trkpt lat="44.24132" lon="3.75372">
        <ele>1004.72</ele>
        <time>2021-07-23T09:04:18Z</time>
      </trkpt>
      <trkpt lat="44.24125" lon="3.75383">
        <ele>1004.23</ele>
        <time>2021-07-23T09:04:20Z</time>
      </trkpt>
      <trkpt lat="44.24111" lon="3.75415">
        <ele>1003.75</ele>
        <time>2021-07-23T09:04:28Z</time>
      </trkpt>
      <trkpt lat="44.2411" lon="3.75421">
        <ele>1004.23</ele>
        <time>2021-07-23T09:04:29Z</time>
      </trkpt>
      <trkpt lat="44.24098" lon="3.75456">
        <ele>1004.72</ele>
        <time>2021-07-23T09:04:34Z</time>
      </trkpt>
      <trkpt lat="44.24064" lon="3.7549">
        <ele>1003.27</ele>
        <time>2021-07-23T09:04:40Z</time>
      </trkpt>
      <trkpt lat="44.24043" lon="3.75504">
        <ele>1003.75</ele>
        <time>2021-07-23T09:04:44Z</time>
      </trkpt>
      <trkpt lat="44.23993" lon="3.75514">
        <ele>1005.2</ele>
        <time>2021-07-23T09:04:53Z</time>
      </trkpt>
      <trkpt lat="44.23904" lon="3.75526">
        <ele>1003.75</ele>
        <time>2021-07-23T09:05:04Z</time>
      </trkpt>
      <trkpt lat="44.23865" lon="3.75532">
        <ele>1001.83</ele>
        <time>2021-07-23T09:05:09Z</time>
      </trkpt>
      <trkpt lat="44.23802" lon="3.75554">
        <ele>998.47</ele>
        <time>2021-07-23T09:05:18Z</time>
      </trkpt>
      <trkpt lat="44.23719" lon="3.75581">
        <ele>992.7</ele>
        <time>2021-07-23T09:05:30Z</time>
      </trkpt>
      <trkpt lat="44.23692" lon="3.75593">
        <ele>989.81</ele>
        <time>2021-07-23T09:05:34Z</time>
      </trkpt>
      <trkpt lat="44.23671" lon="3.75597">
        <ele>988.37</ele>
        <time>2021-07-23T09:05:37Z</time>
      </trkpt>
      <trkpt lat="44.23649" lon="3.75608">
        <ele>985.49</ele>
        <time>2021-07-23T09:05:41Z</time>
      </trkpt>
      <trkpt lat="44.23588" lon="3.75616">
        <ele>978.76</ele>
        <time>2021-07-23T09:05:52Z</time>
      </trkpt>
      <trkpt lat="44.23541" lon="3.75638">
        <ele>972.99</ele>
        <time>2021-07-23T09:06:03Z</time>
      </trkpt>
      <trkpt lat="44.23538" lon="3.75641">
        <ele>974.91</ele>
        <time>2021-07-23T09:06:14Z</time>
      </trkpt>
      <trkpt lat="44.23514" lon="3.75678">
        <ele>971.07</ele>
        <time>2021-07-23T09:06:22Z</time>
      </trkpt>
      <trkpt lat="44.23495" lon="3.7571">
        <ele>969.15</ele>
        <time>2021-07-23T09:06:26Z</time>
      </trkpt>
      <trkpt lat="44.23477" lon="3.75754">
        <ele>967.22</ele>
        <time>2021-07-23T09:06:31Z</time>
      </trkpt>
      <trkpt lat="44.23474" lon="3.75771">
        <ele>966.74</ele>
        <time>2021-07-23T09:06:33Z</time>
      </trkpt>
      <trkpt lat="44.23471" lon="3.75787">
        <ele>966.74</ele>
        <time>2021-07-23T09:06:35Z</time>
      </trkpt>
      <trkpt lat="44.23465" lon="3.75822">
        <ele>966.74</ele>
        <time>2021-07-23T09:06:39Z</time>
      </trkpt>
      <trkpt lat="44.23473" lon="3.75877">
        <ele>966.74</ele>
        <time>2021-07-23T09:06:46Z</time>
      </trkpt>
      <trkpt lat="44.23466" lon="3.75899">
        <ele>964.34</ele>
        <time>2021-07-23T09:06:50Z</time>
      </trkpt>
      <trkpt lat="44.2341" lon="3.75936">
        <ele>958.09</ele>
        <time>2021-07-23T09:07:04Z</time>
      </trkpt>
      <trkpt lat="44.234" lon="3.75945">
        <ele>959.05</ele>
        <time>2021-07-23T09:07:07Z</time>
      </trkpt>
      <trkpt lat="44.23389" lon="3.75975">
        <ele>958.57</ele>
        <time>2021-07-23T09:07:13Z</time>
      </trkpt>
      <trkpt lat="44.23383" lon="3.7604">
        <ele>957.61</ele>
        <time>2021-07-23T09:07:24Z</time>
      </trkpt>
      <trkpt lat="44.23384" lon="3.76103">
        <ele>956.65</ele>
        <time>2021-07-23T09:07:35Z</time>
      </trkpt>
      <trkpt lat="44.23384" lon="3.76117">
        <ele>957.61</ele>
        <time>2021-07-23T09:07:37Z</time>
      </trkpt>
      <trkpt lat="44.23393" lon="3.76168">
        <ele>958.57</ele>
        <time>2021-07-23T09:07:44Z</time>
      </trkpt>
      <trkpt lat="44.23398" lon="3.76206">
        <ele>958.09</ele>
        <time>2021-07-23T09:07:49Z</time>
      </trkpt>
      <trkpt lat="44.23406" lon="3.76245">
        <ele>955.69</ele>
        <time>2021-07-23T09:07:54Z</time>
      </trkpt>
      <trkpt lat="44.23425" lon="3.76325">
        <ele>950.4</ele>
        <time>2021-07-23T09:08:03Z</time>
      </trkpt>
      <trkpt lat="44.23429" lon="3.76331">
        <ele>949.44</ele>
        <time>2021-07-23T09:08:04Z</time>
      </trkpt>
      <trkpt lat="44.23438" lon="3.76345">
        <ele>948</ele>
        <time>2021-07-23T09:08:06Z</time>
      </trkpt>
      <trkpt lat="44.23459" lon="3.76392">
        <ele>942.71</ele>
        <time>2021-07-23T09:08:12Z</time>
      </trkpt>
      <trkpt lat="44.23487" lon="3.76488">
        <ele>935.5</ele>
        <time>2021-07-23T09:08:22Z</time>
      </trkpt>
      <trkpt lat="44.23498" lon="3.76564">
        <ele>934.06</ele>
        <time>2021-07-23T09:08:31Z</time>
      </trkpt>
      <trkpt lat="44.23511" lon="3.76577">
        <ele>932.14</ele>
        <time>2021-07-23T09:08:35Z</time>
      </trkpt>
      <trkpt lat="44.23517" lon="3.7658">
        <ele>931.17</ele>
        <time>2021-07-23T09:08:37Z</time>
      </trkpt>
      <trkpt lat="44.23538" lon="3.766">
        <ele>926.85</ele>
        <time>2021-07-23T09:08:45Z</time>
      </trkpt>
      <trkpt lat="44.2353" lon="3.76602">
        <ele>925.41</ele>
        <time>2021-07-23T09:08:48Z</time>
      </trkpt>
      <trkpt lat="44.23522" lon="3.76598">
        <ele>923.96</ele>
        <time>2021-07-23T09:08:50Z</time>
      </trkpt>
      <trkpt lat="44.23513" lon="3.76605">
        <ele>920.6</ele>
        <time>2021-07-23T09:08:56Z</time>
      </trkpt>
      <trkpt lat="44.23518" lon="3.76611">
        <ele>919.16</ele>
        <time>2021-07-23T09:08:58Z</time>
      </trkpt>
      <trkpt lat="44.23547" lon="3.76631">
        <ele>913.39</ele>
        <time>2021-07-23T09:09:08Z</time>
      </trkpt>
      <trkpt lat="44.23551" lon="3.76632">
        <ele>914.83</ele>
        <time>2021-07-23T09:09:20Z</time>
      </trkpt>
      <trkpt lat="44.23557" lon="3.76633">
        <ele>919.64</ele>
        <time>2021-07-23T09:09:41Z</time>
      </trkpt>
      <trkpt lat="44.2356" lon="3.76637">
        <ele>924.45</ele>
        <time>2021-07-23T09:10:10Z</time>
      </trkpt>
      <trkpt lat="44.23561" lon="3.76641">
        <ele>924.93</ele>
        <time>2021-07-23T09:10:37Z</time>
      </trkpt>
      <trkpt lat="44.2356" lon="3.76642">
        <ele>928.29</ele>
        <time>2021-07-23T09:11:01Z</time>
      </trkpt>
      <trkpt lat="44.2356" lon="3.76641">
        <ele>935.98</ele>
        <time>2021-07-23T09:11:30Z</time>
      </trkpt>
      <trkpt lat="44.2357" lon="3.76648">
        <ele>936.94</ele>
        <time>2021-07-23T09:11:55Z</time>
      </trkpt>
      <trkpt lat="44.23574" lon="3.7665">
        <ele>936.46</ele>
        <time>2021-07-23T09:11:56Z</time>
      </trkpt>
      <trkpt lat="44.23606" lon="3.76669">
        <ele>932.62</ele>
        <time>2021-07-23T09:12:03Z</time>
      </trkpt>
      <trkpt lat="44.23611" lon="3.76684">
        <ele>930.21</ele>
        <time>2021-07-23T09:12:06Z</time>
      </trkpt>
      <trkpt lat="44.23613" lon="3.76716">
        <ele>925.89</ele>
        <time>2021-07-23T09:12:11Z</time>
      </trkpt>
      <trkpt lat="44.23603" lon="3.76753">
        <ele>921.56</ele>
        <time>2021-07-23T09:12:16Z</time>
      </trkpt>
      <trkpt lat="44.23596" lon="3.76785">
        <ele>918.2</ele>
        <time>2021-07-23T09:12:19Z</time>
      </trkpt>
      <trkpt lat="44.23587" lon="3.76836">
        <ele>912.91</ele>
        <time>2021-07-23T09:12:24Z</time>
      </trkpt>
      <trkpt lat="44.23586" lon="3.76874">
        <ele>908.58</ele>
        <time>2021-07-23T09:12:28Z</time>
      </trkpt>
      <trkpt lat="44.23603" lon="3.76978">
        <ele>898.97</ele>
        <time>2021-07-23T09:12:38Z</time>
      </trkpt>
      <trkpt lat="44.23605" lon="3.76987">
        <ele>898.01</ele>
        <time>2021-07-23T09:12:39Z</time>
      </trkpt>
      <trkpt lat="44.23621" lon="3.77043">
        <ele>893.2</ele>
        <time>2021-07-23T09:12:45Z</time>
      </trkpt>
      <trkpt lat="44.2363" lon="3.7708">
        <ele>889.36</ele>
        <time>2021-07-23T09:12:49Z</time>
      </trkpt>
      <trkpt lat="44.23642" lon="3.77157">
        <ele>885.03</ele>
        <time>2021-07-23T09:12:57Z</time>
      </trkpt>
      <trkpt lat="44.23647" lon="3.77199">
        <ele>880.71</ele>
        <time>2021-07-23T09:13:04Z</time>
      </trkpt>
      <trkpt lat="44.23637" lon="3.77204">
        <ele>878.3</ele>
        <time>2021-07-23T09:13:09Z</time>
      </trkpt>
      <trkpt lat="44.23622" lon="3.77197">
        <ele>876.38</ele>
        <time>2021-07-23T09:13:14Z</time>
      </trkpt>
      <trkpt lat="44.23625" lon="3.7723">
        <ele>872.05</ele>
        <time>2021-07-23T09:13:21Z</time>
      </trkpt>
      <trkpt lat="44.23641" lon="3.77249">
        <ele>866.77</ele>
        <time>2021-07-23T09:13:26Z</time>
      </trkpt>
      <trkpt lat="44.23654" lon="3.77286">
        <ele>860.04</ele>
        <time>2021-07-23T09:13:33Z</time>
      </trkpt>
      <trkpt lat="44.23637" lon="3.77312">
        <ele>856.19</ele>
        <time>2021-07-23T09:13:38Z</time>
      </trkpt>
      <trkpt lat="44.23628" lon="3.77319">
        <ele>855.23</ele>
        <time>2021-07-23T09:13:40Z</time>
      </trkpt>
      <trkpt lat="44.23597" lon="3.77328">
        <ele>854.27</ele>
        <time>2021-07-23T09:13:49Z</time>
      </trkpt>
      <trkpt lat="44.23586" lon="3.77329">
        <ele>854.75</ele>
        <time>2021-07-23T09:13:52Z</time>
      </trkpt>
      <trkpt lat="44.23543" lon="3.77336">
        <ele>861</ele>
        <time>2021-07-23T09:14:00Z</time>
      </trkpt>
      <trkpt lat="44.23527" lon="3.77339">
        <ele>861</ele>
        <time>2021-07-23T09:14:02Z</time>
      </trkpt>
      <trkpt lat="44.235" lon="3.77356">
        <ele>860.52</ele>
        <time>2021-07-23T09:14:06Z</time>
      </trkpt>
      <trkpt lat="44.23475" lon="3.774">
        <ele>858.59</ele>
        <time>2021-07-23T09:14:13Z</time>
      </trkpt>
      <trkpt lat="44.23459" lon="3.77422">
        <ele>857.15</ele>
        <time>2021-07-23T09:14:18Z</time>
      </trkpt>
      <trkpt lat="44.23453" lon="3.77429">
        <ele>856.19</ele>
        <time>2021-07-23T09:14:20Z</time>
      </trkpt>
      <trkpt lat="44.23431" lon="3.7745">
        <ele>853.79</ele>
        <time>2021-07-23T09:14:26Z</time>
      </trkpt>
      <trkpt lat="44.2342" lon="3.77476">
        <ele>862.44</ele>
        <time>2021-07-23T09:14:38Z</time>
      </trkpt>
      <trkpt lat="44.23416" lon="3.77485">
        <ele>875.42</ele>
        <time>2021-07-23T09:14:55Z</time>
      </trkpt>
      <trkpt lat="44.23417" lon="3.77487">
        <ele>881.67</ele>
        <time>2021-07-23T09:15:14Z</time>
      </trkpt>
      <trkpt lat="44.2342" lon="3.77489">
        <ele>888.4</ele>
        <time>2021-07-23T09:15:41Z</time>
      </trkpt>
      <trkpt lat="44.23419" lon="3.77489">
        <ele>887.91</ele>
        <time>2021-07-23T09:15:57Z</time>
      </trkpt>
      <trkpt lat="44.23419" lon="3.7749">
        <ele>890.32</ele>
        <time>2021-07-23T09:16:21Z</time>
      </trkpt>
      <trkpt lat="44.23415" lon="3.775">
        <ele>891.76</ele>
        <time>2021-07-23T09:16:39Z</time>
      </trkpt>
      <trkpt lat="44.23388" lon="3.77546">
        <ele>890.8</ele>
        <time>2021-07-23T09:16:47Z</time>
      </trkpt>
      <trkpt lat="44.23379" lon="3.77554">
        <ele>890.32</ele>
        <time>2021-07-23T09:16:49Z</time>
      </trkpt>
      <trkpt lat="44.23365" lon="3.77566">
        <ele>889.84</ele>
        <time>2021-07-23T09:16:52Z</time>
      </trkpt>
      <trkpt lat="44.23348" lon="3.77587">
        <ele>887.91</ele>
        <time>2021-07-23T09:16:57Z</time>
      </trkpt>
      <trkpt lat="44.23339" lon="3.77593">
        <ele>887.43</ele>
        <time>2021-07-23T09:16:59Z</time>
      </trkpt>
      <trkpt lat="44.23306" lon="3.7763">
        <ele>884.55</ele>
        <time>2021-07-23T09:17:10Z</time>
      </trkpt>
      <trkpt lat="44.23281" lon="3.77653">
        <ele>879.74</ele>
        <time>2021-07-23T09:17:20Z</time>
      </trkpt>
      <trkpt lat="44.23269" lon="3.77663">
        <ele>877.34</ele>
        <time>2021-07-23T09:17:25Z</time>
      </trkpt>
      <trkpt lat="44.23261" lon="3.77671">
        <ele>876.38</ele>
        <time>2021-07-23T09:17:29Z</time>
      </trkpt>
      <trkpt lat="44.23241" lon="3.77697">
        <ele>875.42</ele>
        <time>2021-07-23T09:17:42Z</time>
      </trkpt>
      <trkpt lat="44.2323" lon="3.77712">
        <ele>877.34</ele>
        <time>2021-07-23T09:17:50Z</time>
      </trkpt>
      <trkpt lat="44.23221" lon="3.77728">
        <ele>877.82</ele>
        <time>2021-07-23T09:17:56Z</time>
      </trkpt>
      <trkpt lat="44.2322" lon="3.77734">
        <ele>881.67</ele>
        <time>2021-07-23T09:18:10Z</time>
      </trkpt>
      <trkpt lat="44.23219" lon="3.77739">
        <ele>887.43</ele>
        <time>2021-07-23T09:18:35Z</time>
      </trkpt>
      <trkpt lat="44.23216" lon="3.77753">
        <ele>889.36</ele>
        <time>2021-07-23T09:18:48Z</time>
      </trkpt>
      <trkpt lat="44.23215" lon="3.77752">
        <ele>891.28</ele>
        <time>2021-07-23T09:19:11Z</time>
      </trkpt>
      <trkpt lat="44.23215" lon="3.7775">
        <ele>892.72</ele>
        <time>2021-07-23T09:19:41Z</time>
      </trkpt>
      <trkpt lat="44.23215" lon="3.77749">
        <ele>895.12</ele>
        <time>2021-07-23T09:20:14Z</time>
      </trkpt>
      <trkpt lat="44.23214" lon="3.7775">
        <ele>896.57</ele>
        <time>2021-07-23T09:20:38Z</time>
      </trkpt>
      <trkpt lat="44.23213" lon="3.77764">
        <ele>897.05</ele>
        <time>2021-07-23T09:20:43Z</time>
      </trkpt>
      <trkpt lat="44.23217" lon="3.77793">
        <ele>896.57</ele>
        <time>2021-07-23T09:20:47Z</time>
      </trkpt>
      <trkpt lat="44.23209" lon="3.77823">
        <ele>894.64</ele>
        <time>2021-07-23T09:20:51Z</time>
      </trkpt>
      <trkpt lat="44.23198" lon="3.77842">
        <ele>892.72</ele>
        <time>2021-07-23T09:20:54Z</time>
      </trkpt>
      <trkpt lat="44.23189" lon="3.7787">
        <ele>890.8</ele>
        <time>2021-07-23T09:20:59Z</time>
      </trkpt>
      <trkpt lat="44.23169" lon="3.779">
        <ele>887.91</ele>
        <time>2021-07-23T09:21:05Z</time>
      </trkpt>
      <trkpt lat="44.23158" lon="3.77924">
        <ele>887.43</ele>
        <time>2021-07-23T09:21:09Z</time>
      </trkpt>
      <trkpt lat="44.23115" lon="3.7803">
        <ele>886.95</ele>
        <time>2021-07-23T09:21:22Z</time>
      </trkpt>
      <trkpt lat="44.23109" lon="3.78045">
        <ele>886.47</ele>
        <time>2021-07-23T09:21:24Z</time>
      </trkpt>
      <trkpt lat="44.23104" lon="3.7808">
        <ele>885.51</ele>
        <time>2021-07-23T09:21:28Z</time>
      </trkpt>
      <trkpt lat="44.23101" lon="3.78098">
        <ele>885.03</ele>
        <time>2021-07-23T09:21:30Z</time>
      </trkpt>
      <trkpt lat="44.23096" lon="3.78129">
        <ele>883.59</ele>
        <time>2021-07-23T09:21:34Z</time>
      </trkpt>
      <trkpt lat="44.23079" lon="3.78183">
        <ele>881.19</ele>
        <time>2021-07-23T09:21:40Z</time>
      </trkpt>
      <trkpt lat="44.23036" lon="3.78282">
        <ele>878.3</ele>
        <time>2021-07-23T09:21:49Z</time>
      </trkpt>
      <trkpt lat="44.23008" lon="3.78366">
        <ele>873.98</ele>
        <time>2021-07-23T09:21:57Z</time>
      </trkpt>
      <trkpt lat="44.2297" lon="3.78418">
        <ele>869.65</ele>
        <time>2021-07-23T09:22:03Z</time>
      </trkpt>
      <trkpt lat="44.2295" lon="3.78434">
        <ele>867.25</ele>
        <time>2021-07-23T09:22:06Z</time>
      </trkpt>
      <trkpt lat="44.22919" lon="3.78444">
        <ele>862.92</ele>
        <time>2021-07-23T09:22:10Z</time>
      </trkpt>
      <trkpt lat="44.22903" lon="3.78446">
        <ele>861</ele>
        <time>2021-07-23T09:22:12Z</time>
      </trkpt>
      <trkpt lat="44.22836" lon="3.78492">
        <ele>852.35</ele>
        <time>2021-07-23T09:22:21Z</time>
      </trkpt>
      <trkpt lat="44.22732" lon="3.78575">
        <ele>839.37</ele>
        <time>2021-07-23T09:22:33Z</time>
      </trkpt>
      <trkpt lat="44.22717" lon="3.7859">
        <ele>837.45</ele>
        <time>2021-07-23T09:22:35Z</time>
      </trkpt>
      <trkpt lat="44.22672" lon="3.78649">
        <ele>831.68</ele>
        <time>2021-07-23T09:22:42Z</time>
      </trkpt>
      <trkpt lat="44.22633" lon="3.78712">
        <ele>827.83</ele>
        <time>2021-07-23T09:22:49Z</time>
      </trkpt>
      <trkpt lat="44.22604" lon="3.78813">
        <ele>827.35</ele>
        <time>2021-07-23T09:22:57Z</time>
      </trkpt>
      <trkpt lat="44.22583" lon="3.78902">
        <ele>826.87</ele>
        <time>2021-07-23T09:23:04Z</time>
      </trkpt>
      <trkpt lat="44.22578" lon="3.78927">
        <ele>826.87</ele>
        <time>2021-07-23T09:23:06Z</time>
      </trkpt>
      <trkpt lat="44.22574" lon="3.7895">
        <ele>826.39</ele>
        <time>2021-07-23T09:23:08Z</time>
      </trkpt>
      <trkpt lat="44.22555" lon="3.78982">
        <ele>825.91</ele>
        <time>2021-07-23T09:23:13Z</time>
      </trkpt>
      <trkpt lat="44.22512" lon="3.79028">
        <ele>823.51</ele>
        <time>2021-07-23T09:23:21Z</time>
      </trkpt>
      <trkpt lat="44.22488" lon="3.79122">
        <ele>821.58</ele>
        <time>2021-07-23T09:23:29Z</time>
      </trkpt>
      <trkpt lat="44.22481" lon="3.79145">
        <ele>821.1</ele>
        <time>2021-07-23T09:23:31Z</time>
      </trkpt>
      <trkpt lat="44.22459" lon="3.79187">
        <ele>819.66</ele>
        <time>2021-07-23T09:23:35Z</time>
      </trkpt>
      <trkpt lat="44.22432" lon="3.79227">
        <ele>817.74</ele>
        <time>2021-07-23T09:23:39Z</time>
      </trkpt>
      <trkpt lat="44.22405" lon="3.79286">
        <ele>815.82</ele>
        <time>2021-07-23T09:23:44Z</time>
      </trkpt>
      <trkpt lat="44.22409" lon="3.79361">
        <ele>813.89</ele>
        <time>2021-07-23T09:23:50Z</time>
      </trkpt>
      <trkpt lat="44.22456" lon="3.79451">
        <ele>811.01</ele>
        <time>2021-07-23T09:23:59Z</time>
      </trkpt>
      <trkpt lat="44.22465" lon="3.795">
        <ele>809.09</ele>
        <time>2021-07-23T09:24:04Z</time>
      </trkpt>
      <trkpt lat="44.22472" lon="3.79622">
        <ele>807.16</ele>
        <time>2021-07-23T09:24:15Z</time>
      </trkpt>
      <trkpt lat="44.2247" lon="3.79646">
        <ele>806.68</ele>
        <time>2021-07-23T09:24:17Z</time>
      </trkpt>
      <trkpt lat="44.22474" lon="3.79684">
        <ele>805.24</ele>
        <time>2021-07-23T09:24:23Z</time>
      </trkpt>
      <trkpt lat="44.22479" lon="3.79684">
        <ele>804.76</ele>
        <time>2021-07-23T09:24:32Z</time>
      </trkpt>
      <trkpt lat="44.22478" lon="3.79684">
        <ele>805.24</ele>
        <time>2021-07-23T09:24:54Z</time>
      </trkpt>
      <trkpt lat="44.22478" lon="3.79679">
        <ele>807.16</ele>
        <time>2021-07-23T09:25:22Z</time>
      </trkpt>
      <trkpt lat="44.22486" lon="3.79668">
        <ele>807.16</ele>
        <time>2021-07-23T09:25:27Z</time>
      </trkpt>
      <trkpt lat="44.22499" lon="3.79644">
        <ele>807.16</ele>
        <time>2021-07-23T09:25:31Z</time>
      </trkpt>
      <trkpt lat="44.22509" lon="3.79621">
        <ele>807.16</ele>
        <time>2021-07-23T09:25:34Z</time>
      </trkpt>
      <trkpt lat="44.22514" lon="3.79578">
        <ele>806.2</ele>
        <time>2021-07-23T09:25:38Z</time>
      </trkpt>
      <trkpt lat="44.2251" lon="3.79498">
        <ele>802.84</ele>
        <time>2021-07-23T09:25:44Z</time>
      </trkpt>
      <trkpt lat="44.22511" lon="3.7944">
        <ele>798.51</ele>
        <time>2021-07-23T09:25:48Z</time>
      </trkpt>
      <trkpt lat="44.22495" lon="3.79351">
        <ele>791.78</ele>
        <time>2021-07-23T09:25:56Z</time>
      </trkpt>
      <trkpt lat="44.225" lon="3.79332">
        <ele>790.82</ele>
        <time>2021-07-23T09:25:58Z</time>
      </trkpt>
      <trkpt lat="44.22533" lon="3.79282">
        <ele>787.94</ele>
        <time>2021-07-23T09:26:04Z</time>
      </trkpt>
      <trkpt lat="44.22559" lon="3.79257">
        <ele>786.5</ele>
        <time>2021-07-23T09:26:08Z</time>
      </trkpt>
      <trkpt lat="44.22584" lon="3.7925">
        <ele>785.05</ele>
        <time>2021-07-23T09:26:11Z</time>
      </trkpt>
      <trkpt lat="44.22606" lon="3.7924">
        <ele>784.09</ele>
        <time>2021-07-23T09:26:14Z</time>
      </trkpt>
      <trkpt lat="44.22671" lon="3.7921">
        <ele>779.77</ele>
        <time>2021-07-23T09:26:22Z</time>
      </trkpt>
      <trkpt lat="44.22683" lon="3.79163">
        <ele>776.4</ele>
        <time>2021-07-23T09:26:26Z</time>
      </trkpt>
      <trkpt lat="44.22694" lon="3.79102">
        <ele>773.04</ele>
        <time>2021-07-23T09:26:31Z</time>
      </trkpt>
      <trkpt lat="44.22712" lon="3.79053">
        <ele>769.19</ele>
        <time>2021-07-23T09:26:36Z</time>
      </trkpt>
      <trkpt lat="44.22723" lon="3.79039">
        <ele>768.23</ele>
        <time>2021-07-23T09:26:38Z</time>
      </trkpt>
      <trkpt lat="44.22793" lon="3.79004">
        <ele>763.42</ele>
        <time>2021-07-23T09:26:47Z</time>
      </trkpt>
      <trkpt lat="44.22801" lon="3.79">
        <ele>762.94</ele>
        <time>2021-07-23T09:26:48Z</time>
      </trkpt>
      <trkpt lat="44.22842" lon="3.78947">
        <ele>759.58</ele>
        <time>2021-07-23T09:26:55Z</time>
      </trkpt>
      <trkpt lat="44.22871" lon="3.78932">
        <ele>757.18</ele>
        <time>2021-07-23T09:26:59Z</time>
      </trkpt>
      <trkpt lat="44.22888" lon="3.78931">
        <ele>755.73</ele>
        <time>2021-07-23T09:27:01Z</time>
      </trkpt>
      <trkpt lat="44.22904" lon="3.78926">
        <ele>754.77</ele>
        <time>2021-07-23T09:27:03Z</time>
      </trkpt>
      <trkpt lat="44.22949" lon="3.78901">
        <ele>751.41</ele>
        <time>2021-07-23T09:27:09Z</time>
      </trkpt>
      <trkpt lat="44.22963" lon="3.78918">
        <ele>749</ele>
        <time>2021-07-23T09:27:14Z</time>
      </trkpt>
      <trkpt lat="44.22949" lon="3.78931">
        <ele>747.56</ele>
        <time>2021-07-23T09:27:17Z</time>
      </trkpt>
      <trkpt lat="44.22928" lon="3.78952">
        <ele>744.2</ele>
        <time>2021-07-23T09:27:21Z</time>
      </trkpt>
      <trkpt lat="44.22903" lon="3.78967">
        <ele>738.91</ele>
        <time>2021-07-23T09:27:29Z</time>
      </trkpt>
      <trkpt lat="44.22901" lon="3.78968">
        <ele>740.35</ele>
        <time>2021-07-23T09:27:43Z</time>
      </trkpt>
      <trkpt lat="44.22904" lon="3.78967">
        <ele>741.79</ele>
        <time>2021-07-23T09:27:56Z</time>
      </trkpt>
      <trkpt lat="44.22909" lon="3.78959">
        <ele>741.79</ele>
        <time>2021-07-23T09:28:12Z</time>
      </trkpt>
      <trkpt lat="44.22913" lon="3.78956">
        <ele>741.79</ele>
        <time>2021-07-23T09:28:27Z</time>
      </trkpt>
      <trkpt lat="44.22915" lon="3.78954">
        <ele>740.83</ele>
        <time>2021-07-23T09:28:43Z</time>
      </trkpt>
      <trkpt lat="44.22917" lon="3.78951">
        <ele>741.79</ele>
        <time>2021-07-23T09:28:52Z</time>
      </trkpt>
      <trkpt lat="44.22925" lon="3.78945">
        <ele>744.2</ele>
        <time>2021-07-23T09:28:59Z</time>
      </trkpt>
      <trkpt lat="44.22946" lon="3.78927">
        <ele>747.56</ele>
        <time>2021-07-23T09:29:11Z</time>
      </trkpt>
      <trkpt lat="44.22969" lon="3.78909">
        <ele>751.89</ele>
        <time>2021-07-23T09:29:25Z</time>
      </trkpt>
      <trkpt lat="44.22957" lon="3.78893">
        <ele>750.93</ele>
        <time>2021-07-23T09:29:33Z</time>
      </trkpt>
      <trkpt lat="44.2295" lon="3.78895">
        <ele>750.93</ele>
        <time>2021-07-23T09:29:38Z</time>
      </trkpt>
      <trkpt lat="44.22932" lon="3.78902">
        <ele>750.93</ele>
        <time>2021-07-23T09:29:49Z</time>
      </trkpt>
      <trkpt lat="44.2293" lon="3.78903">
        <ele>751.41</ele>
        <time>2021-07-23T09:29:50Z</time>
      </trkpt>
      <trkpt lat="44.22917" lon="3.78908">
        <ele>751.41</ele>
        <time>2021-07-23T09:29:57Z</time>
      </trkpt>
      <trkpt lat="44.22892" lon="3.7892">
        <ele>753.81</ele>
        <time>2021-07-23T09:30:09Z</time>
      </trkpt>
      <trkpt lat="44.22873" lon="3.78921">
        <ele>754.29</ele>
        <time>2021-07-23T09:30:19Z</time>
      </trkpt>
      <trkpt lat="44.22854" lon="3.78921">
        <ele>754.77</ele>
        <time>2021-07-23T09:30:30Z</time>
      </trkpt>
      <trkpt lat="44.22846" lon="3.78924">
        <ele>753.33</ele>
        <time>2021-07-23T09:30:35Z</time>
      </trkpt>
      <trkpt lat="44.22834" lon="3.78931">
        <ele>752.85</ele>
        <time>2021-07-23T09:30:42Z</time>
      </trkpt>
      <trkpt lat="44.22826" lon="3.78944">
        <ele>752.85</ele>
        <time>2021-07-23T09:30:50Z</time>
      </trkpt>
      <trkpt lat="44.22809" lon="3.78972">
        <ele>756.69</ele>
        <time>2021-07-23T09:31:04Z</time>
      </trkpt>
      <trkpt lat="44.22795" lon="3.78994">
        <ele>763.42</ele>
        <time>2021-07-23T09:31:16Z</time>
      </trkpt>
      <trkpt lat="44.22783" lon="3.79005">
        <ele>767.27</ele>
        <time>2021-07-23T09:31:26Z</time>
      </trkpt>
      <trkpt lat="44.22777" lon="3.79007">
        <ele>768.23</ele>
        <time>2021-07-23T09:31:30Z</time>
      </trkpt>
      <trkpt lat="44.22753" lon="3.79018">
        <ele>767.27</ele>
        <time>2021-07-23T09:31:43Z</time>
      </trkpt>
      <trkpt lat="44.22742" lon="3.79021">
        <ele>766.31</ele>
        <time>2021-07-23T09:31:51Z</time>
      </trkpt>
      <trkpt lat="44.22727" lon="3.79028">
        <ele>767.27</ele>
        <time>2021-07-23T09:32:00Z</time>
      </trkpt>
      <trkpt lat="44.22723" lon="3.79032">
        <ele>767.27</ele>
        <time>2021-07-23T09:32:03Z</time>
      </trkpt>
      <trkpt lat="44.2272" lon="3.79036">
        <ele>767.27</ele>
        <time>2021-07-23T09:32:06Z</time>
      </trkpt>
      <trkpt lat="44.22706" lon="3.7906">
        <ele>767.27</ele>
        <time>2021-07-23T09:32:18Z</time>
      </trkpt>
      <trkpt lat="44.22693" lon="3.79094">
        <ele>770.15</ele>
        <time>2021-07-23T09:32:33Z</time>
      </trkpt>
      <trkpt lat="44.22689" lon="3.79114">
        <ele>771.6</ele>
        <time>2021-07-23T09:32:43Z</time>
      </trkpt>
      <trkpt lat="44.22685" lon="3.79128">
        <ele>771.11</ele>
        <time>2021-07-23T09:32:49Z</time>
      </trkpt>
      <trkpt lat="44.22676" lon="3.79167">
        <ele>769.67</ele>
        <time>2021-07-23T09:33:06Z</time>
      </trkpt>
      <trkpt lat="44.22669" lon="3.79201">
        <ele>768.71</ele>
        <time>2021-07-23T09:33:20Z</time>
      </trkpt>
      <trkpt lat="44.22647" lon="3.79223">
        <ele>771.11</ele>
        <time>2021-07-23T09:33:36Z</time>
      </trkpt>
      <trkpt lat="44.22624" lon="3.79225">
        <ele>770.63</ele>
        <time>2021-07-23T09:33:49Z</time>
      </trkpt>
      <trkpt lat="44.22602" lon="3.79233">
        <ele>770.15</ele>
        <time>2021-07-23T09:34:01Z</time>
      </trkpt>
      <trkpt lat="44.22585" lon="3.79242">
        <ele>769.67</ele>
        <time>2021-07-23T09:34:09Z</time>
      </trkpt>
      <trkpt lat="44.22577" lon="3.79244">
        <ele>769.19</ele>
        <time>2021-07-23T09:34:13Z</time>
      </trkpt>
      <trkpt lat="44.22558" lon="3.79246">
        <ele>767.75</ele>
        <time>2021-07-23T09:34:23Z</time>
      </trkpt>
      <trkpt lat="44.2254" lon="3.79258">
        <ele>766.31</ele>
        <time>2021-07-23T09:34:32Z</time>
      </trkpt>
      <trkpt lat="44.22514" lon="3.79292">
        <ele>767.75</ele>
        <time>2021-07-23T09:34:48Z</time>
      </trkpt>
      <trkpt lat="44.22511" lon="3.79296">
        <ele>768.23</ele>
        <time>2021-07-23T09:34:50Z</time>
      </trkpt>
      <trkpt lat="44.22502" lon="3.79304">
        <ele>769.19</ele>
        <time>2021-07-23T09:34:55Z</time>
      </trkpt>
      <trkpt lat="44.22489" lon="3.7934">
        <ele>774.48</ele>
        <time>2021-07-23T09:35:10Z</time>
      </trkpt>
      <trkpt lat="44.22496" lon="3.7937">
        <ele>777.36</ele>
        <time>2021-07-23T09:35:21Z</time>
      </trkpt>
      <trkpt lat="44.22503" lon="3.79386">
        <ele>780.25</ele>
        <time>2021-07-23T09:35:27Z</time>
      </trkpt>
      <trkpt lat="44.22504" lon="3.79405">
        <ele>782.65</ele>
        <time>2021-07-23T09:35:33Z</time>
      </trkpt>
      <trkpt lat="44.22501" lon="3.7944">
        <ele>786.02</ele>
        <time>2021-07-23T09:35:46Z</time>
      </trkpt>
      <trkpt lat="44.22498" lon="3.79474">
        <ele>786.98</ele>
        <time>2021-07-23T09:36:00Z</time>
      </trkpt>
      <trkpt lat="44.225" lon="3.79496">
        <ele>790.82</ele>
        <time>2021-07-23T09:36:09Z</time>
      </trkpt>
      <trkpt lat="44.22502" lon="3.7953">
        <ele>792.74</ele>
        <time>2021-07-23T09:36:24Z</time>
      </trkpt>
      <trkpt lat="44.22502" lon="3.7956">
        <ele>796.11</ele>
        <time>2021-07-23T09:36:37Z</time>
      </trkpt>
      <trkpt lat="44.22503" lon="3.7957">
        <ele>798.51</ele>
        <time>2021-07-23T09:36:42Z</time>
      </trkpt>
      <trkpt lat="44.22503" lon="3.79577">
        <ele>799.47</ele>
        <time>2021-07-23T09:36:53Z</time>
      </trkpt>
      <trkpt lat="44.22508" lon="3.79581">
        <ele>799.95</ele>
        <time>2021-07-23T09:37:08Z</time>
      </trkpt>
      <trkpt lat="44.22511" lon="3.79581">
        <ele>798.51</ele>
        <time>2021-07-23T09:37:36Z</time>
      </trkpt>
      <trkpt lat="44.22512" lon="3.79585">
        <ele>798.99</ele>
        <time>2021-07-23T09:38:06Z</time>
      </trkpt>
      <trkpt lat="44.22513" lon="3.79584">
        <ele>798.99</ele>
        <time>2021-07-23T09:38:23Z</time>
      </trkpt>
      <trkpt lat="44.22512" lon="3.79583">
        <ele>799.95</ele>
        <time>2021-07-23T09:38:56Z</time>
      </trkpt>
      <trkpt lat="44.22511" lon="3.79583">
        <ele>799.95</ele>
        <time>2021-07-23T09:39:17Z</time>
      </trkpt>
      <trkpt lat="44.2251" lon="3.79584">
        <ele>800.44</ele>
        <time>2021-07-23T09:39:37Z</time>
      </trkpt>
      <trkpt lat="44.2251" lon="3.79584">
        <ele>800.44</ele>
        <time>2021-07-23T09:39:54Z</time>
      </trkpt>
      <trkpt lat="44.2251" lon="3.79584">
        <ele>800.44</ele>
        <time>2021-07-23T09:39:55Z</time>
      </trkpt>
      <trkpt lat="44.22511" lon="3.79603">
        <ele>799.95</ele>
        <time>2021-07-23T09:40:01Z</time>
      </trkpt>
      <trkpt lat="44.22522" lon="3.79649">
        <ele>797.07</ele>
        <time>2021-07-23T09:40:11Z</time>
      </trkpt>
      <trkpt lat="44.22526" lon="3.79672">
        <ele>796.59</ele>
        <time>2021-07-23T09:40:14Z</time>
      </trkpt>
      <trkpt lat="44.22534" lon="3.79704">
        <ele>794.67</ele>
        <time>2021-07-23T09:40:18Z</time>
      </trkpt>
      <trkpt lat="44.22541" lon="3.79756">
        <ele>790.34</ele>
        <time>2021-07-23T09:40:25Z</time>
      </trkpt>
      <trkpt lat="44.22542" lon="3.79791">
        <ele>787.94</ele>
        <time>2021-07-23T09:40:30Z</time>
      </trkpt>
      <trkpt lat="44.22539" lon="3.79818">
        <ele>785.53</ele>
        <time>2021-07-23T09:40:34Z</time>
      </trkpt>
      <trkpt lat="44.22532" lon="3.7985">
        <ele>782.17</ele>
        <time>2021-07-23T09:40:40Z</time>
      </trkpt>
      <trkpt lat="44.22512" lon="3.79869">
        <ele>778.32</ele>
        <time>2021-07-23T09:40:46Z</time>
      </trkpt>
      <trkpt lat="44.22502" lon="3.79876">
        <ele>776.4</ele>
        <time>2021-07-23T09:40:49Z</time>
      </trkpt>
      <trkpt lat="44.22492" lon="3.79881">
        <ele>774.96</ele>
        <time>2021-07-23T09:40:53Z</time>
      </trkpt>
      <trkpt lat="44.22487" lon="3.79885">
        <ele>774.48</ele>
        <time>2021-07-23T09:40:55Z</time>
      </trkpt>
      <trkpt lat="44.22478" lon="3.7989">
        <ele>774</ele>
        <time>2021-07-23T09:40:57Z</time>
      </trkpt>
      <trkpt lat="44.22461" lon="3.79894">
        <ele>772.56</ele>
        <time>2021-07-23T09:41:00Z</time>
      </trkpt>
      <trkpt lat="44.22415" lon="3.79899">
        <ele>766.31</ele>
        <time>2021-07-23T09:41:10Z</time>
      </trkpt>
      <trkpt lat="44.22402" lon="3.79898">
        <ele>762.94</ele>
        <time>2021-07-23T09:41:14Z</time>
      </trkpt>
      <trkpt lat="44.22383" lon="3.79892">
        <ele>756.69</ele>
        <time>2021-07-23T09:41:24Z</time>
      </trkpt>
      <trkpt lat="44.22374" lon="3.79888">
        <ele>756.21</ele>
        <time>2021-07-23T09:41:36Z</time>
      </trkpt>
      <trkpt lat="44.22354" lon="3.79873">
        <ele>750.93</ele>
        <time>2021-07-23T09:41:45Z</time>
      </trkpt>
      <trkpt lat="44.22339" lon="3.79841">
        <ele>745.64</ele>
        <time>2021-07-23T09:41:56Z</time>
      </trkpt>
      <trkpt lat="44.22332" lon="3.79825">
        <ele>743.72</ele>
        <time>2021-07-23T09:42:00Z</time>
      </trkpt>
      <trkpt lat="44.223" lon="3.79824">
        <ele>745.16</ele>
        <time>2021-07-23T09:42:11Z</time>
      </trkpt>
      <trkpt lat="44.22284" lon="3.79835">
        <ele>743.24</ele>
        <time>2021-07-23T09:42:18Z</time>
      </trkpt>
      <trkpt lat="44.22274" lon="3.7984">
        <ele>741.79</ele>
        <time>2021-07-23T09:42:23Z</time>
      </trkpt>
      <trkpt lat="44.22265" lon="3.79844">
        <ele>739.39</ele>
        <time>2021-07-23T09:42:33Z</time>
      </trkpt>
      <trkpt lat="44.22259" lon="3.79846">
        <ele>736.51</ele>
        <time>2021-07-23T09:42:44Z</time>
      </trkpt>
      <trkpt lat="44.22253" lon="3.79846">
        <ele>735.07</ele>
        <time>2021-07-23T09:42:52Z</time>
      </trkpt>
      <trkpt lat="44.22251" lon="3.79854">
        <ele>732.18</ele>
        <time>2021-07-23T09:43:04Z</time>
      </trkpt>
      <trkpt lat="44.22256" lon="3.79854">
        <ele>732.18</ele>
        <time>2021-07-23T09:43:16Z</time>
      </trkpt>
      <trkpt lat="44.22264" lon="3.79851">
        <ele>732.18</ele>
        <time>2021-07-23T09:43:21Z</time>
      </trkpt>
      <trkpt lat="44.22275" lon="3.79852">
        <ele>731.22</ele>
        <time>2021-07-23T09:43:25Z</time>
      </trkpt>
      <trkpt lat="44.22277" lon="3.79867">
        <ele>729.3</ele>
        <time>2021-07-23T09:43:34Z</time>
      </trkpt>
      <trkpt lat="44.22275" lon="3.79869">
        <ele>729.3</ele>
        <time>2021-07-23T09:43:56Z</time>
      </trkpt>
      <trkpt lat="44.22276" lon="3.79868">
        <ele>729.3</ele>
        <time>2021-07-23T09:43:57Z</time>
      </trkpt>
      <trkpt lat="44.22277" lon="3.79865">
        <ele>729.78</ele>
        <time>2021-07-23T09:44:00Z</time>
      </trkpt>
      <trkpt lat="44.22276" lon="3.79857">
        <ele>730.26</ele>
        <time>2021-07-23T09:44:05Z</time>
      </trkpt>
      <trkpt lat="44.22273" lon="3.79852">
        <ele>730.26</ele>
        <time>2021-07-23T09:44:09Z</time>
      </trkpt>
      <trkpt lat="44.22257" lon="3.79855">
        <ele>730.74</ele>
        <time>2021-07-23T09:44:23Z</time>
      </trkpt>
      <trkpt lat="44.22248" lon="3.79855">
        <ele>732.66</ele>
        <time>2021-07-23T09:44:37Z</time>
      </trkpt>
      <trkpt lat="44.2225" lon="3.79854">
        <ele>732.18</ele>
        <time>2021-07-23T09:44:47Z</time>
      </trkpt>
      <trkpt lat="44.2227" lon="3.7985">
        <ele>728.34</ele>
        <time>2021-07-23T09:44:55Z</time>
      </trkpt>
      <trkpt lat="44.22272" lon="3.79868">
        <ele>725.93</ele>
        <time>2021-07-23T09:45:01Z</time>
      </trkpt>
      <trkpt lat="44.22253" lon="3.79872">
        <ele>724.01</ele>
        <time>2021-07-23T09:45:05Z</time>
      </trkpt>
      <trkpt lat="44.22227" lon="3.79885">
        <ele>721.61</ele>
        <time>2021-07-23T09:45:10Z</time>
      </trkpt>
      <trkpt lat="44.22208" lon="3.79895">
        <ele>719.2</ele>
        <time>2021-07-23T09:45:13Z</time>
      </trkpt>
      <trkpt lat="44.22178" lon="3.79914">
        <ele>715.36</ele>
        <time>2021-07-23T09:45:18Z</time>
      </trkpt>
      <trkpt lat="44.22144" lon="3.79924">
        <ele>711.51</ele>
        <time>2021-07-23T09:45:23Z</time>
      </trkpt>
      <trkpt lat="44.22113" lon="3.79915">
        <ele>707.19</ele>
        <time>2021-07-23T09:45:28Z</time>
      </trkpt>
      <trkpt lat="44.221" lon="3.79904">
        <ele>705.26</ele>
        <time>2021-07-23T09:45:30Z</time>
      </trkpt>
      <trkpt lat="44.22078" lon="3.79895">
        <ele>702.86</ele>
        <time>2021-07-23T09:45:33Z</time>
      </trkpt>
      <trkpt lat="44.22036" lon="3.7986">
        <ele>695.17</ele>
        <time>2021-07-23T09:45:40Z</time>
      </trkpt>
      <trkpt lat="44.22017" lon="3.79848">
        <ele>691.81</ele>
        <time>2021-07-23T09:45:44Z</time>
      </trkpt>
      <trkpt lat="44.22006" lon="3.79843">
        <ele>688.92</ele>
        <time>2021-07-23T09:45:47Z</time>
      </trkpt>
      <trkpt lat="44.22002" lon="3.79846">
        <ele>685.56</ele>
        <time>2021-07-23T09:45:57Z</time>
      </trkpt>
      <trkpt lat="44.21996" lon="3.79853">
        <ele>681.71</ele>
        <time>2021-07-23T09:46:07Z</time>
      </trkpt>
      <trkpt lat="44.21991" lon="3.79869">
        <ele>680.27</ele>
        <time>2021-07-23T09:46:22Z</time>
      </trkpt>
      <trkpt lat="44.21988" lon="3.79878">
        <ele>680.75</ele>
        <time>2021-07-23T09:46:34Z</time>
      </trkpt>
      <trkpt lat="44.21984" lon="3.79884">
        <ele>677.39</ele>
        <time>2021-07-23T09:46:43Z</time>
      </trkpt>
      <trkpt lat="44.21983" lon="3.79896">
        <ele>674.5</ele>
        <time>2021-07-23T09:46:53Z</time>
      </trkpt>
      <trkpt lat="44.21983" lon="3.79898">
        <ele>674.5</ele>
        <time>2021-07-23T09:47:06Z</time>
      </trkpt>
      <trkpt lat="44.21984" lon="3.79898">
        <ele>674.5</ele>
        <time>2021-07-23T09:47:30Z</time>
      </trkpt>
      <trkpt lat="44.2198" lon="3.79909">
        <ele>674.98</ele>
        <time>2021-07-23T09:47:41Z</time>
      </trkpt>
      <trkpt lat="44.21975" lon="3.79925">
        <ele>674.5</ele>
        <time>2021-07-23T09:47:53Z</time>
      </trkpt>
      <trkpt lat="44.21973" lon="3.79927">
        <ele>674.02</ele>
        <time>2021-07-23T09:48:01Z</time>
      </trkpt>
      <trkpt lat="44.21968" lon="3.79924">
        <ele>670.18</ele>
        <time>2021-07-23T09:48:12Z</time>
      </trkpt>
      <trkpt lat="44.21965" lon="3.79927">
        <ele>668.73</ele>
        <time>2021-07-23T09:48:23Z</time>
      </trkpt>
      <trkpt lat="44.21962" lon="3.79952">
        <ele>665.37</ele>
        <time>2021-07-23T09:48:33Z</time>
      </trkpt>
      <trkpt lat="44.21956" lon="3.79961">
        <ele>663.93</ele>
        <time>2021-07-23T09:48:45Z</time>
      </trkpt>
      <trkpt lat="44.21951" lon="3.79966">
        <ele>661.52</ele>
        <time>2021-07-23T09:48:57Z</time>
      </trkpt>
      <trkpt lat="44.21945" lon="3.79972">
        <ele>660.08</ele>
        <time>2021-07-23T09:49:11Z</time>
      </trkpt>
      <trkpt lat="44.21945" lon="3.79972">
        <ele>660.08</ele>
        <time>2021-07-23T09:49:13Z</time>
      </trkpt>
      <trkpt lat="44.21938" lon="3.79982">
        <ele>660.08</ele>
        <time>2021-07-23T09:49:18Z</time>
      </trkpt>
      <trkpt lat="44.21931" lon="3.80004">
        <ele>653.83</ele>
        <time>2021-07-23T09:49:27Z</time>
      </trkpt>
      <trkpt lat="44.2193" lon="3.80009">
        <ele>652.39</ele>
        <time>2021-07-23T09:49:30Z</time>
      </trkpt>
      <trkpt lat="44.2193" lon="3.80014">
        <ele>650.47</ele>
        <time>2021-07-23T09:49:32Z</time>
      </trkpt>
      <trkpt lat="44.21928" lon="3.80046">
        <ele>646.62</ele>
        <time>2021-07-23T09:49:39Z</time>
      </trkpt>
      <trkpt lat="44.21926" lon="3.80066">
        <ele>644.22</ele>
        <time>2021-07-23T09:49:45Z</time>
      </trkpt>
      <trkpt lat="44.21938" lon="3.80112">
        <ele>640.38</ele>
        <time>2021-07-23T09:49:56Z</time>
      </trkpt>
      <trkpt lat="44.21939" lon="3.80159">
        <ele>639.41</ele>
        <time>2021-07-23T09:50:03Z</time>
      </trkpt>
      <trkpt lat="44.2194" lon="3.80173">
        <ele>639.41</ele>
        <time>2021-07-23T09:50:05Z</time>
      </trkpt>
      <trkpt lat="44.21929" lon="3.80235">
        <ele>640.86</ele>
        <time>2021-07-23T09:50:15Z</time>
      </trkpt>
      <trkpt lat="44.21912" lon="3.80284">
        <ele>638.93</ele>
        <time>2021-07-23T09:50:25Z</time>
      </trkpt>
      <trkpt lat="44.21897" lon="3.80333">
        <ele>636.05</ele>
        <time>2021-07-23T09:50:35Z</time>
      </trkpt>
      <trkpt lat="44.21896" lon="3.8034">
        <ele>636.05</ele>
        <time>2021-07-23T09:50:44Z</time>
      </trkpt>
      <trkpt lat="44.21897" lon="3.80344">
        <ele>637.01</ele>
        <time>2021-07-23T09:51:05Z</time>
      </trkpt>
      <trkpt lat="44.21896" lon="3.80346">
        <ele>639.41</ele>
        <time>2021-07-23T09:51:32Z</time>
      </trkpt>
      <trkpt lat="44.21896" lon="3.80347">
        <ele>640.86</ele>
        <time>2021-07-23T09:52:02Z</time>
      </trkpt>
      <trkpt lat="44.21895" lon="3.80348">
        <ele>641.82</ele>
        <time>2021-07-23T09:52:30Z</time>
      </trkpt>
      <trkpt lat="44.21896" lon="3.80348">
        <ele>640.86</ele>
        <time>2021-07-23T09:52:54Z</time>
      </trkpt>
      <trkpt lat="44.21888" lon="3.80371">
        <ele>640.86</ele>
        <time>2021-07-23T09:53:04Z</time>
      </trkpt>
      <trkpt lat="44.21865" lon="3.80393">
        <ele>637.97</ele>
        <time>2021-07-23T09:53:14Z</time>
      </trkpt>
      <trkpt lat="44.2185" lon="3.80401">
        <ele>635.57</ele>
        <time>2021-07-23T09:53:19Z</time>
      </trkpt>
      <trkpt lat="44.21842" lon="3.80399">
        <ele>633.17</ele>
        <time>2021-07-23T09:53:23Z</time>
      </trkpt>
      <trkpt lat="44.21832" lon="3.80401">
        <ele>628.36</ele>
        <time>2021-07-23T09:53:33Z</time>
      </trkpt>
      <trkpt lat="44.21829" lon="3.80402">
        <ele>628.84</ele>
        <time>2021-07-23T09:53:34Z</time>
      </trkpt>
      <trkpt lat="44.21822" lon="3.80388">
        <ele>622.11</ele>
        <time>2021-07-23T09:53:43Z</time>
      </trkpt>
      <trkpt lat="44.21818" lon="3.80405">
        <ele>617.78</ele>
        <time>2021-07-23T09:53:49Z</time>
      </trkpt>
      <trkpt lat="44.2182" lon="3.80419">
        <ele>615.38</ele>
        <time>2021-07-23T09:53:52Z</time>
      </trkpt>
      <trkpt lat="44.21832" lon="3.80437">
        <ele>607.69</ele>
        <time>2021-07-23T09:53:59Z</time>
      </trkpt>
      <trkpt lat="44.2184" lon="3.80449">
        <ele>602.4</ele>
        <time>2021-07-23T09:54:04Z</time>
      </trkpt>
      <trkpt lat="44.21855" lon="3.80461">
        <ele>600</ele>
        <time>2021-07-23T09:54:14Z</time>
      </trkpt>
      <trkpt lat="44.21856" lon="3.80462">
        <ele>600</ele>
        <time>2021-07-23T09:54:15Z</time>
      </trkpt>
      <trkpt lat="44.21878" lon="3.80471">
        <ele>598.56</ele>
        <time>2021-07-23T09:54:24Z</time>
      </trkpt>
      <trkpt lat="44.21896" lon="3.80481">
        <ele>598.08</ele>
        <time>2021-07-23T09:54:32Z</time>
      </trkpt>
      <trkpt lat="44.219" lon="3.80484">
        <ele>598.08</ele>
        <time>2021-07-23T09:54:35Z</time>
      </trkpt>
      <trkpt lat="44.21936" lon="3.80465">
        <ele>599.04</ele>
        <time>2021-07-23T09:54:45Z</time>
      </trkpt>
      <trkpt lat="44.21958" lon="3.80444">
        <ele>600.48</ele>
        <time>2021-07-23T09:54:54Z</time>
      </trkpt>
      <trkpt lat="44.21987" lon="3.80411">
        <ele>599.52</ele>
        <time>2021-07-23T09:55:05Z</time>
      </trkpt>
      <trkpt lat="44.21998" lon="3.80398">
        <ele>594.71</ele>
        <time>2021-07-23T09:55:15Z</time>
      </trkpt>
      <trkpt lat="44.22001" lon="3.80402">
        <ele>592.79</ele>
        <time>2021-07-23T09:55:23Z</time>
      </trkpt>
      <trkpt lat="44.21999" lon="3.80407">
        <ele>590.39</ele>
        <time>2021-07-23T09:55:26Z</time>
      </trkpt>
      <trkpt lat="44.21996" lon="3.80432">
        <ele>586.06</ele>
        <time>2021-07-23T09:55:31Z</time>
      </trkpt>
      <trkpt lat="44.21993" lon="3.80441">
        <ele>582.7</ele>
        <time>2021-07-23T09:55:34Z</time>
      </trkpt>
      <trkpt lat="44.21993" lon="3.80446">
        <ele>580.77</ele>
        <time>2021-07-23T09:55:37Z</time>
      </trkpt>
      <trkpt lat="44.22007" lon="3.80433">
        <ele>579.33</ele>
        <time>2021-07-23T09:55:48Z</time>
      </trkpt>
      <trkpt lat="44.22011" lon="3.80429">
        <ele>577.89</ele>
        <time>2021-07-23T09:55:51Z</time>
      </trkpt>
      <trkpt lat="44.22014" lon="3.80424">
        <ele>577.41</ele>
        <time>2021-07-23T09:55:54Z</time>
      </trkpt>
      <trkpt lat="44.2203" lon="3.804">
        <ele>576.45</ele>
        <time>2021-07-23T09:56:03Z</time>
      </trkpt>
      <trkpt lat="44.22033" lon="3.80382">
        <ele>575.01</ele>
        <time>2021-07-23T09:56:16Z</time>
      </trkpt>
      <trkpt lat="44.22034" lon="3.80375">
        <ele>573.56</ele>
        <time>2021-07-23T09:56:28Z</time>
      </trkpt>
      <trkpt lat="44.22041" lon="3.80385">
        <ele>567.8</ele>
        <time>2021-07-23T09:56:40Z</time>
      </trkpt>
      <trkpt lat="44.22049" lon="3.80396">
        <ele>564.43</ele>
        <time>2021-07-23T09:56:53Z</time>
      </trkpt>
      <trkpt lat="44.22052" lon="3.80395">
        <ele>564.91</ele>
        <time>2021-07-23T09:57:08Z</time>
      </trkpt>
      <trkpt lat="44.22055" lon="3.80397">
        <ele>567.32</ele>
        <time>2021-07-23T09:57:27Z</time>
      </trkpt>
      <trkpt lat="44.22054" lon="3.80397">
        <ele>567.32</ele>
        <time>2021-07-23T09:57:40Z</time>
      </trkpt>
      <trkpt lat="44.22055" lon="3.80398">
        <ele>569.24</ele>
        <time>2021-07-23T09:58:16Z</time>
      </trkpt>
      <trkpt lat="44.22055" lon="3.80397">
        <ele>570.2</ele>
        <time>2021-07-23T09:58:51Z</time>
      </trkpt>
      <trkpt lat="44.22055" lon="3.80396">
        <ele>568.76</ele>
        <time>2021-07-23T09:59:23Z</time>
      </trkpt>
      <trkpt lat="44.22056" lon="3.80395">
        <ele>567.8</ele>
        <time>2021-07-23T09:59:58Z</time>
      </trkpt>
      <trkpt lat="44.22057" lon="3.80395">
        <ele>570.2</ele>
        <time>2021-07-23T10:00:32Z</time>
      </trkpt>
      <trkpt lat="44.22056" lon="3.80398">
        <ele>573.56</ele>
        <time>2021-07-23T10:00:57Z</time>
      </trkpt>
      <trkpt lat="44.22056" lon="3.80399">
        <ele>574.04</ele>
        <time>2021-07-23T10:01:19Z</time>
      </trkpt>
      <trkpt lat="44.22057" lon="3.80402">
        <ele>574.04</ele>
        <time>2021-07-23T10:01:43Z</time>
      </trkpt>
      <trkpt lat="44.22058" lon="3.80402">
        <ele>574.53</ele>
        <time>2021-07-23T10:01:57Z</time>
      </trkpt>
      <trkpt lat="44.22063" lon="3.80435">
        <ele>571.64</ele>
        <time>2021-07-23T10:02:04Z</time>
      </trkpt>
      <trkpt lat="44.22061" lon="3.80441">
        <ele>570.68</ele>
        <time>2021-07-23T10:02:05Z</time>
      </trkpt>
      <trkpt lat="44.2205" lon="3.80469">
        <ele>567.32</ele>
        <time>2021-07-23T10:02:09Z</time>
      </trkpt>
      <trkpt lat="44.22035" lon="3.80505">
        <ele>562.51</ele>
        <time>2021-07-23T10:02:14Z</time>
      </trkpt>
      <trkpt lat="44.2202" lon="3.80532">
        <ele>557.22</ele>
        <time>2021-07-23T10:02:19Z</time>
      </trkpt>
      <trkpt lat="44.22033" lon="3.80531">
        <ele>551.93</ele>
        <time>2021-07-23T10:02:25Z</time>
      </trkpt>
      <trkpt lat="44.22055" lon="3.80508">
        <ele>548.09</ele>
        <time>2021-07-23T10:02:30Z</time>
      </trkpt>
      <trkpt lat="44.22067" lon="3.80502">
        <ele>546.65</ele>
        <time>2021-07-23T10:02:33Z</time>
      </trkpt>
      <trkpt lat="44.22064" lon="3.8052">
        <ele>541.36</ele>
        <time>2021-07-23T10:02:40Z</time>
      </trkpt>
      <trkpt lat="44.22042" lon="3.80557">
        <ele>534.63</ele>
        <time>2021-07-23T10:02:47Z</time>
      </trkpt>
      <trkpt lat="44.22039" lon="3.80562">
        <ele>533.67</ele>
        <time>2021-07-23T10:02:48Z</time>
      </trkpt>
      <trkpt lat="44.22033" lon="3.80574">
        <ele>532.23</ele>
        <time>2021-07-23T10:02:50Z</time>
      </trkpt>
      <trkpt lat="44.22026" lon="3.806">
        <ele>528.38</ele>
        <time>2021-07-23T10:02:54Z</time>
      </trkpt>
      <trkpt lat="44.22017" lon="3.80636">
        <ele>522.61</ele>
        <time>2021-07-23T10:03:02Z</time>
      </trkpt>
      <trkpt lat="44.22022" lon="3.80637">
        <ele>522.61</ele>
        <time>2021-07-23T10:03:28Z</time>
      </trkpt>
      <trkpt lat="44.22015" lon="3.80652">
        <ele>523.09</ele>
        <time>2021-07-23T10:03:54Z</time>
      </trkpt>
      <trkpt lat="44.22014" lon="3.80657">
        <ele>523.09</ele>
        <time>2021-07-23T10:03:55Z</time>
      </trkpt>
      <trkpt lat="44.22013" lon="3.80682">
        <ele>521.17</ele>
        <time>2021-07-23T10:03:59Z</time>
      </trkpt>
      <trkpt lat="44.2201" lon="3.80708">
        <ele>514.92</ele>
        <time>2021-07-23T10:04:08Z</time>
      </trkpt>
      <trkpt lat="44.2201" lon="3.80709">
        <ele>513.96</ele>
        <time>2021-07-23T10:04:26Z</time>
      </trkpt>
      <trkpt lat="44.21994" lon="3.80752">
        <ele>510.6</ele>
        <time>2021-07-23T10:04:35Z</time>
      </trkpt>
      <trkpt lat="44.2198" lon="3.8078">
        <ele>508.67</ele>
        <time>2021-07-23T10:04:39Z</time>
      </trkpt>
      <trkpt lat="44.21962" lon="3.80812">
        <ele>505.79</ele>
        <time>2021-07-23T10:04:45Z</time>
      </trkpt>
      <trkpt lat="44.21952" lon="3.80829">
        <ele>504.35</ele>
        <time>2021-07-23T10:04:49Z</time>
      </trkpt>
      <trkpt lat="44.2193" lon="3.80865">
        <ele>501.95</ele>
        <time>2021-07-23T10:04:55Z</time>
      </trkpt>
      <trkpt lat="44.21916" lon="3.80881">
        <ele>500.5</ele>
        <time>2021-07-23T10:04:59Z</time>
      </trkpt>
      <trkpt lat="44.21903" lon="3.80891">
        <ele>498.1</ele>
        <time>2021-07-23T10:05:05Z</time>
      </trkpt>
      <trkpt lat="44.21898" lon="3.8089">
        <ele>497.14</ele>
        <time>2021-07-23T10:05:17Z</time>
      </trkpt>
      <trkpt lat="44.21899" lon="3.8089">
        <ele>498.1</ele>
        <time>2021-07-23T10:05:35Z</time>
      </trkpt>
      <trkpt lat="44.21899" lon="3.8089">
        <ele>498.1</ele>
        <time>2021-07-23T10:05:40Z</time>
      </trkpt>
      <trkpt lat="44.2191" lon="3.80895">
        <ele>541.36</ele>
        <time>2021-07-23T10:05:55Z</time>
      </trkpt>
      <trkpt lat="44.21905" lon="3.809">
        <ele>512.04</ele>
        <time>2021-07-23T10:05:59Z</time>
      </trkpt>
      <trkpt lat="44.21887" lon="3.80909">
        <ele>505.31</ele>
        <time>2021-07-23T10:06:07Z</time>
      </trkpt>
      <trkpt lat="44.21878" lon="3.80914">
        <ele>503.39</ele>
        <time>2021-07-23T10:06:09Z</time>
      </trkpt>
      <trkpt lat="44.21868" lon="3.80917">
        <ele>501.95</ele>
        <time>2021-07-23T10:06:11Z</time>
      </trkpt>
      <trkpt lat="44.2185" lon="3.80935">
        <ele>500.5</ele>
        <time>2021-07-23T10:06:20Z</time>
      </trkpt>
      <trkpt lat="44.21846" lon="3.80943">
        <ele>498.58</ele>
        <time>2021-07-23T10:06:31Z</time>
      </trkpt>
      <trkpt lat="44.21847" lon="3.8094">
        <ele>495.7</ele>
        <time>2021-07-23T10:06:37Z</time>
      </trkpt>
      <trkpt lat="44.21855" lon="3.80929">
        <ele>495.22</ele>
        <time>2021-07-23T10:06:51Z</time>
      </trkpt>
      <trkpt lat="44.21854" lon="3.80926">
        <ele>496.18</ele>
        <time>2021-07-23T10:07:02Z</time>
      </trkpt>
    </trkseg>
  </trk>
</gpx>